Wetterdaten: Montag, 22.05.2023
Datum Zeit Temp. Aussen Temp. o. S. Temp +5cm Feuchte Auss Luftdruck Regen Sonnenschein Regendauer Solar Windben Empfang
22.05.2023 00:00 18,9 C 17,8 C 13,9 C 92 % 1014,4 hPa 0,0 l/m 0 min 0 min 0 W/m 16,1 km/h (3 Bft) 95,74 %
22.05.2023 00:02 18,8 C 17,8 C 13,9 C 92 % 1014,4 hPa 0,0 l/m 0 min 0 min 0 W/m 9,7 km/h (2 Bft) 93,48 %
22.05.2023 00:04 18,8 C 17,8 C 13,9 C 92 % 1014,4 hPa 0,0 l/m 0 min 0 min 0 W/m 9,7 km/h (2 Bft) 97,87 %
22.05.2023 00:08 18,8 C 17,8 C 13,9 C 92 % 1014,4 hPa 0,0 l/m 0 min 0 min 0 W/m 9,7 km/h (2 Bft) 100,00 %
22.05.2023 00:10 18,7 C 17,8 C 13,9 C 92 % 1014,3 hPa 0,0 l/m 0 min 0 min 0 W/m 16,1 km/h (3 Bft) 97,87 %
22.05.2023 00:12 18,7 C 17,8 C 13,9 C 92 % 1014,3 hPa 0,0 l/m 0 min 0 min 0 W/m 16,1 km/h (3 Bft) 100,00 %
22.05.2023 00:14 18,7 C 17,8 C 13,9 C 93 % 1014,3 hPa 0,0 l/m 0 min 0 min 0 W/m 6,4 km/h (2 Bft) 100,00 %
22.05.2023 00:16 18,7 C 17,8 C 13,9 C 93 % 1014,3 hPa 0,0 l/m 0 min 0 min 0 W/m 3,2 km/h (1 Bft) 100,00 %
22.05.2023 00:18 18,6 C 17,8 C 13,9 C 93 % 1014,3 hPa 0,0 l/m 0 min 0 min 0 W/m 12,9 km/h (3 Bft) 97,87 %
22.05.2023 00:20 18,6 C 17,8 C 13,9 C 93 % 1014,3 hPa 0,0 l/m 0 min 0 min 0 W/m 6,4 km/h (2 Bft) 100,00 %
22.05.2023 00:22 18,6 C 17,8 C 13,9 C 93 % 1014,3 hPa 0,0 l/m 0 min 0 min 0 W/m 12,9 km/h (3 Bft) 100,00 %
22.05.2023 00:24 18,6 C 17,8 C 13,9 C 93 % 1014,2 hPa 0,0 l/m 0 min 0 min 0 W/m 6,4 km/h (2 Bft) 100,00 %
22.05.2023 00:26 18,6 C 17,8 C 13,9 C 93 % 1014,3 hPa 0,0 l/m 0 min 0 min 0 W/m 3,2 km/h (1 Bft) 100,00 %
22.05.2023 00:28 18,6 C 17,8 C 13,9 C 93 % 1014,2 hPa 0,0 l/m 0 min 0 min 0 W/m 6,4 km/h (2 Bft) 100,00 %
22.05.2023 00:30 18,6 C 17,8 C 13,9 C 93 % 1014,2 hPa 0,0 l/m 0 min 0 min 0 W/m 3,2 km/h (1 Bft) 100,00 %
22.05.2023 00:32 18,6 C 17,8 C 13,9 C 93 % 1014,3 hPa 0,0 l/m 0 min 0 min 0 W/m 0,0 km/h (0 Bft) 100,00 %
22.05.2023 00:34 18,6 C 17,8 C 13,9 C 93 % 1014,2 hPa 0,0 l/m 0 min 0 min 0 W/m 0,0 km/h (0 Bft) 97,87 %
22.05.2023 00:36 18,6 C 17,8 C 13,9 C 93 % 1014,2 hPa 0,0 l/m 0 min 0 min 0 W/m 3,2 km/h (1 Bft) 100,00 %
22.05.2023 00:38 18,6 C 17,8 C 13,9 C 93 % 1014,2 hPa 0,0 l/m 0 min 0 min 0 W/m 0,0 km/h (0 Bft) 100,00 %
22.05.2023 00:40 18,6 C 17,8 C 13,9 C 93 % 1014,2 hPa 0,0 l/m 0 min 0 min 0 W/m 0,0 km/h (0 Bft) 97,87 %
22.05.2023 00:42 18,6 C 17,8 C 13,9 C 93 % 1014,2 hPa 0,0 l/m 0 min 0 min 0 W/m 0,0 km/h (0 Bft) 100,00 %
22.05.2023 00:44 18,6 C 17,8 C 13,9 C 93 % 1014,2 hPa 0,0 l/m 0 min 0 min 0 W/m 0,0 km/h (0 Bft) 100,00 %
22.05.2023 00:46 18,6 C 17,8 C 13,9 C 93 % 1014,2 hPa 0,0 l/m 0 min 0 min 0 W/m 0,0 km/h (0 Bft) 100,00 %
22.05.2023 00:48 18,6 C 17,8 C 13,9 C 93 % 1014,2 hPa 0,0 l/m 0 min 0 min 0 W/m 0,0 km/h (0 Bft) 100,00 %
22.05.2023 00:50 18,6 C 17,8 C 13,9 C 93 % 1014,2 hPa 0,0 l/m 0 min 0 min 0 W/m 0,0 km/h (0 Bft) 97,87 %
22.05.2023 00:52 18,6 C 17,8 C 13,9 C 92 % 1014,2 hPa 0,0 l/m 0 min 0 min 0 W/m 0,0 km/h (0 Bft) 95,74 %
22.05.2023 00:54 18,5 C 17,8 C 13,9 C 92 % 1014,2 hPa 0,0 l/m 0 min 0 min 0 W/m 0,0 km/h (0 Bft) 97,87 %
22.05.2023 00:56 18,5 C 17,8 C 13,9 C 92 % 1014,2 hPa 0,0 l/m 0 min 0 min 0 W/m 0,0 km/h (0 Bft) 97,87 %
22.05.2023 00:58 18,5 C 17,2 C 13,9 C 92 % 1014,1 hPa 0,0 l/m 0 min 0 min 0 W/m 0,0 km/h (0 Bft) 97,87 %
22.05.2023 01:00 18,5 C 17,2 C 13,9 C 92 % 1014,2 hPa 0,0 l/m 0 min 0 min 0 W/m 0,0 km/h (0 Bft) 95,65 %
22.05.2023 01:02 18,5 C 17,2 C 13,9 C 92 % 1014,2 hPa 0,0 l/m 0 min 0 min 0 W/m 0,0 km/h (0 Bft) 95,74 %
22.05.2023 01:04 18,5 C 17,2 C 13,9 C 92 % 1014,2 hPa 0,0 l/m 0 min 0 min 0 W/m 0,0 km/h (0 Bft) 97,92 %
22.05.2023 01:06 18,5 C 17,2 C 13,9 C 92 % 1014,2 hPa 0,0 l/m 0 min 0 min 0 W/m 9,7 km/h (2 Bft) 93,62 %
22.05.2023 01:08 18,4 C 17,2 C 13,9 C 92 % 1014,1 hPa 0,0 l/m 0 min 0 min 0 W/m 3,2 km/h (1 Bft) 95,74 %
22.05.2023 01:10 18,4 C 17,2 C 13,9 C 92 % 1014,2 hPa 0,0 l/m 0 min 0 min 0 W/m 6,4 km/h (2 Bft) 95,74 %
22.05.2023 01:12 18,3 C 17,8 C 13,9 C 92 % 1014,1 hPa 0,0 l/m 0 min 0 min 0 W/m 6,4 km/h (2 Bft) 93,48 %
22.05.2023 01:14 18,3 C 17,8 C 13,9 C 92 % 1014,1 hPa 0,0 l/m 0 min 0 min 0 W/m 3,2 km/h (1 Bft) 93,62 %
22.05.2023 01:16 18,3 C 17,8 C 13,9 C 92 % 1014,2 hPa 0,0 l/m 0 min 0 min 0 W/m 0,0 km/h (0 Bft) 94,29 %
22.05.2023 01:18 18,2 C 17,8 C 13,9 C 92 % 1014,1 hPa 0,0 l/m 0 min 0 min 0 W/m 0,0 km/h (0 Bft) 93,22 %
22.05.2023 01:20 18,2 C 17,8 C 13,9 C 92 % 1014,2 hPa 0,0 l/m 0 min 0 min 0 W/m 3,2 km/h (1 Bft) 93,62 %
22.05.2023 01:22 18,2 C 17,8 C 13,9 C 91 % 1014,1 hPa 0,0 l/m 0 min 0 min 0 W/m 0,0 km/h (0 Bft) 93,62 %
22.05.2023 01:24 18,2 C 17,8 C 13,9 C 91 % 1014,2 hPa 0,0 l/m 0 min 0 min 0 W/m 0,0 km/h (0 Bft) 92,11 %
22.05.2023 01:26 18,2 C 17,2 C 13,9 C 91 % 1014,2 hPa 0,0 l/m 0 min 0 min 0 W/m 3,2 km/h (1 Bft) 93,62 %
22.05.2023 01:28 18,2 C 17,2 C 13,9 C 91 % 1014,2 hPa 0,0 l/m 0 min 0 min 0 W/m 3,2 km/h (1 Bft) 91,30 %
22.05.2023 01:30 18,2 C 17,2 C 13,9 C 91 % 1014,2 hPa 0,0 l/m 0 min 0 min 0 W/m 0,0 km/h (0 Bft) 93,62 %
22.05.2023 01:32 18,2 C 17,2 C 13,9 C 91 % 1014,2 hPa 0,0 l/m 0 min 0 min 0 W/m 0,0 km/h (0 Bft) 93,62 %
22.05.2023 01:34 18,2 C 17,2 C 13,9 C 91 % 1014,2 hPa 0,0 l/m 0 min 0 min 0 W/m 0,0 km/h (0 Bft) 96,00 %
22.05.2023 01:36 18,1 C 17,2 C 13,9 C 91 % 1014,2 hPa 0,0 l/m 0 min 0 min 0 W/m 0,0 km/h (0 Bft) 89,36 %
22.05.2023 01:38 18,2 C 17,2 C 13,9 C 91 % 1014,2 hPa 0,0 l/m 0 min 0 min 0 W/m 3,2 km/h (1 Bft) 94,29 %
22.05.2023 01:40 18,2 C 17,2 C 13,9 C 91 % 1014,2 hPa 0,0 l/m 0 min 0 min 0 W/m 0,0 km/h (0 Bft) 91,38 %
22.05.2023 01:42 18,2 C 17,2 C 13,9 C 91 % 1014,2 hPa 0,0 l/m 0 min 0 min 0 W/m 0,0 km/h (0 Bft) 95,74 %
22.05.2023 01:44 18,1 C 17,2 C 13,9 C 91 % 1014,3 hPa 0,0 l/m 0 min 0 min 0 W/m 0,0 km/h (0 Bft) 95,24 %
22.05.2023 01:46 18,1 C 17,2 C 13,9 C 91 % 1014,3 hPa 0,0 l/m 0 min 0 min 0 W/m 0,0 km/h (0 Bft) 94,23 %
22.05.2023 01:48 18,1 C 17,2 C 13,9 C 91 % 1014,3 hPa 0,0 l/m 0 min 0 min 0 W/m 0,0 km/h (0 Bft) 97,87 %
22.05.2023 01:50 18,1 C 17,2 C 13,9 C 91 % 1014,3 hPa 0,0 l/m 0 min 0 min 0 W/m 0,0 km/h (0 Bft) 95,35 %
22.05.2023 01:52 18,1 C 17,2 C 13,9 C 91 % 1014,3 hPa 0,0 l/m 0 min 0 min 0 W/m 0,0 km/h (0 Bft) 97,87 %
22.05.2023 01:54 18,1 C 17,2 C 13,9 C 91 % 1014,3 hPa 0,0 l/m 0 min 0 min 0 W/m 0,0 km/h (0 Bft) 97,96 %
22.05.2023 01:56 18,1 C 17,2 C 13,9 C 91 % 1014,3 hPa 0,0 l/m 0 min 0 min 0 W/m 0,0 km/h (0 Bft) 100,00 %
22.05.2023 01:58 18,1 C 17,2 C 13,9 C 91 % 1014,3 hPa 0,0 l/m 0 min 0 min 0 W/m 0,0 km/h (0 Bft) 100,00 %
22.05.2023 02:00 18,1 C 17,2 C 13,3 C 91 % 1014,3 hPa 0,0 l/m 0 min 0 min 0 W/m 0,0 km/h (0 Bft) 98,31 %
22.05.2023 02:02 18,1 C 17,2 C 13,3 C 91 % 1014,4 hPa 0,0 l/m 0 min 0 min 0 W/m 3,2 km/h (1 Bft) 100,00 %
22.05.2023 02:04 18,1 C 17,2 C 13,9 C 91 % 1014,4 hPa 0,0 l/m 0 min 0 min 0 W/m 3,2 km/h (1 Bft) 100,00 %
22.05.2023 02:06 18,1 C 17,2 C 13,9 C 91 % 1014,4 hPa 0,0 l/m 0 min 0 min 0 W/m 0,0 km/h (0 Bft) 96,30 %
22.05.2023 02:08 18,1 C 17,2 C 13,9 C 91 % 1014,3 hPa 0,0 l/m 0 min 0 min 0 W/m 0,0 km/h (0 Bft) 100,00 %
22.05.2023 02:10 18,1 C 17,2 C 13,9 C 91 % 1014,4 hPa 0,0 l/m 0 min 0 min 0 W/m 0,0 km/h (0 Bft) 100,00 %
22.05.2023 02:12 18,1 C 17,2 C 13,9 C 91 % 1014,4 hPa 0,0 l/m 0 min 0 min 0 W/m 0,0 km/h (0 Bft) 100,00 %
22.05.2023 02:14 18,1 C 17,2 C 13,9 C 91 % 1014,4 hPa 0,0 l/m 0 min 0 min 0 W/m 0,0 km/h (0 Bft) 100,00 %
22.05.2023 02:16 18,1 C 17,2 C 13,9 C 91 % 1014,3 hPa 0,0 l/m 0 min 0 min 0 W/m 0,0 km/h (0 Bft) 100,00 %
22.05.2023 02:18 18,1 C 17,2 C 13,3 C 91 % 1014,3 hPa 0,0 l/m 0 min 0 min 0 W/m 0,0 km/h (0 Bft) 100,00 %
22.05.2023 02:20 18,1 C 17,2 C 13,3 C 91 % 1014,3 hPa 0,0 l/m 0 min 0 min 0 W/m 0,0 km/h (0 Bft) 100,00 %
22.05.2023 02:22 18,1 C 16,7 C 13,3 C 91 % 1014,3 hPa 0,0 l/m 0 min 0 min 0 W/m 0,0 km/h (0 Bft) 95,74 %
22.05.2023 02:24 18,1 C 16,7 C 13,3 C 91 % 1014,3 hPa 0,0 l/m 0 min 0 min 0 W/m 0,0 km/h (0 Bft) 100,00 %
22.05.2023 02:26 18,1 C 16,7 C 13,3 C 91 % 1014,2 hPa 0,0 l/m 0 min 0 min 0 W/m 0,0 km/h (0 Bft) 100,00 %
22.05.2023 02:28 18,1 C 16,7 C 13,3 C 91 % 1014,2 hPa 0,0 l/m 0 min 0 min 0 W/m 0,0 km/h (0 Bft) 100,00 %
22.05.2023 02:30 18,0 C 16,7 C 13,3 C 91 % 1014,3 hPa 0,0 l/m 0 min 0 min 0 W/m 0,0 km/h (0 Bft) 100,00 %
22.05.2023 02:32 18,0 C 16,7 C 13,3 C 91 % 1014,3 hPa 0,0 l/m 0 min 0 min 0 W/m 0,0 km/h (0 Bft) 100,00 %
22.05.2023 02:34 18,0 C 16,7 C 13,3 C 91 % 1014,2 hPa 0,0 l/m 0 min 0 min 0 W/m 0,0 km/h (0 Bft) 100,00 %
22.05.2023 02:36 17,9 C 16,7 C 13,3 C 91 % 1014,2 hPa 0,0 l/m 0 min 0 min 0 W/m 3,2 km/h (1 Bft) 100,00 %
22.05.2023 02:38 17,9 C 16,7 C 13,3 C 91 % 1014,2 hPa 0,0 l/m 0 min 0 min 0 W/m 3,2 km/h (1 Bft) 100,00 %
22.05.2023 02:40 17,9 C 16,7 C 13,3 C 91 % 1014,1 hPa 0,0 l/m 0 min 0 min 0 W/m 3,2 km/h (1 Bft) 100,00 %
22.05.2023 02:42 17,9 C 16,7 C 13,3 C 91 % 1014,1 hPa 0,0 l/m 0 min 0 min 0 W/m 0,0 km/h (0 Bft) 100,00 %
22.05.2023 02:44 17,9 C 16,7 C 13,3 C 91 % 1014,1 hPa 0,0 l/m 0 min 0 min 0 W/m 0,0 km/h (0 Bft) 100,00 %
22.05.2023 02:46 17,8 C 16,7 C 13,3 C 91 % 1014,1 hPa 0,0 l/m 0 min 0 min 0 W/m 3,2 km/h (1 Bft) 97,87 %
22.05.2023 02:48 17,8 C 16,7 C 13,3 C 91 % 1014,1 hPa 0,0 l/m 0 min 0 min 0 W/m 0,0 km/h (0 Bft) 97,83 %
22.05.2023 02:50 17,8 C 16,7 C 13,3 C 91 % 1014,1 hPa 0,0 l/m 0 min 0 min 0 W/m 0,0 km/h (0 Bft) 98,18 %
22.05.2023 02:52 17,8 C 16,7 C 13,3 C 91 % 1014,1 hPa 0,0 l/m 0 min 0 min 0 W/m 0,0 km/h (0 Bft) 100,00 %
22.05.2023 02:54 17,8 C 16,7 C 12,8 C 91 % 1014,1 hPa 0,0 l/m 0 min 0 min 0 W/m 0,0 km/h (0 Bft) 100,00 %
22.05.2023 02:56 17,7 C 16,7 C 12,8 C 91 % 1014,1 hPa 0,0 l/m 0 min 0 min 0 W/m 0,0 km/h (0 Bft) 100,00 %
22.05.2023 02:58 17,7 C 16,1 C 12,8 C 91 % 1014,1 hPa 0,0 l/m 0 min 0 min 0 W/m 0,0 km/h (0 Bft) 97,87 %
22.05.2023 03:00 17,7 C 16,1 C 12,8 C 91 % 1014,1 hPa 0,0 l/m 0 min 0 min 0 W/m 0,0 km/h (0 Bft) 100,00 %
22.05.2023 03:02 17,6 C 16,1 C 12,8 C 91 % 1014,1 hPa 0,0 l/m 0 min 0 min 0 W/m 0,0 km/h (0 Bft) 100,00 %
22.05.2023 03:04 17,6 C 16,1 C 12,8 C 91 % 1014,1 hPa 0,0 l/m 0 min 0 min 0 W/m 0,0 km/h (0 Bft) 100,00 %
22.05.2023 03:06 17,6 C 16,1 C 12,8 C 91 % 1014,1 hPa 0,0 l/m 0 min 0 min 0 W/m 6,4 km/h (2 Bft) 98,36 %
22.05.2023 03:08 17,6 C 16,1 C 12,8 C 91 % 1014,1 hPa 0,0 l/m 0 min 0 min 0 W/m 6,4 km/h (2 Bft) 100,00 %
22.05.2023 03:10 17,6 C 16,1 C 12,8 C 91 % 1014,1 hPa 0,0 l/m 0 min 0 min 0 W/m 0,0 km/h (0 Bft) 95,74 %
22.05.2023 03:12 17,5 C 16,1 C 12,8 C 91 % 1014,1 hPa 0,0 l/m 0 min 0 min 0 W/m 3,2 km/h (1 Bft) 97,83 %
22.05.2023 03:14 17,5 C 16,1 C 12,8 C 91 % 1014,0 hPa 0,0 l/m 0 min 0 min 0 W/m 3,2 km/h (1 Bft) 97,87 %
22.05.2023 03:16 17,4 C 16,1 C 12,8 C 91 % 1014,0 hPa 0,0 l/m 0 min 0 min 0 W/m 0,0 km/h (0 Bft) 97,87 %
22.05.2023 03:18 17,4 C 16,1 C 12,8 C 91 % 1014,0 hPa 0,0 l/m 0 min 0 min 0 W/m 0,0 km/h (0 Bft) 97,87 %
22.05.2023 03:20 17,4 C 16,1 C 12,8 C 91 % 1014,0 hPa 0,0 l/m 0 min 0 min 0 W/m 3,2 km/h (1 Bft) 95,74 %
22.05.2023 03:22 17,4 C 16,1 C 12,8 C 91 % 1014,0 hPa 0,0 l/m 0 min 0 min 0 W/m 0,0 km/h (0 Bft) 97,37 %
22.05.2023 03:24 17,4 C 16,1 C 12,8 C 92 % 1014,0 hPa 0,0 l/m 0 min 0 min 0 W/m 3,2 km/h (1 Bft) 97,87 %
22.05.2023 03:26 17,3 C 16,1 C 12,8 C 92 % 1014,0 hPa 0,0 l/m 0 min 0 min 0 W/m 3,2 km/h (1 Bft) 100,00 %
22.05.2023 03:28 17,3 C 16,1 C 12,8 C 92 % 1014,0 hPa 0,0 l/m 0 min 0 min 0 W/m 0,0 km/h (0 Bft) 96,36 %
22.05.2023 03:30 17,3 C 16,1 C 12,8 C 92 % 1014,0 hPa 0,0 l/m 0 min 0 min 0 W/m 0,0 km/h (0 Bft) 97,87 %
22.05.2023 03:32 17,3 C 16,1 C 12,8 C 91 % 1014,0 hPa 0,0 l/m 0 min 0 min 0 W/m 0,0 km/h (0 Bft) 95,74 %
22.05.2023 03:34 17,3 C 16,1 C 12,8 C 92 % 1014,0 hPa 0,0 l/m 0 min 0 min 0 W/m 3,2 km/h (1 Bft) 97,87 %
22.05.2023 03:36 17,3 C 16,1 C 12,8 C 92 % 1014,0 hPa 0,0 l/m 0 min 0 min 0 W/m 3,2 km/h (1 Bft) 93,62 %
22.05.2023 03:38 17,2 C 16,1 C 12,8 C 92 % 1014,0 hPa 0,0 l/m 0 min 0 min 0 W/m 0,0 km/h (0 Bft) 95,65 %
22.05.2023 03:40 17,2 C 16,1 C 12,8 C 92 % 1014,0 hPa 0,0 l/m 0 min 0 min 0 W/m 3,2 km/h (1 Bft) 97,92 %
22.05.2023 03:42 17,2 C 16,1 C 12,8 C 92 % 1014,0 hPa 0,0 l/m 0 min 0 min 0 W/m 0,0 km/h (0 Bft) 95,74 %
22.05.2023 03:44 17,2 C 16,1 C 12,8 C 92 % 1014,0 hPa 0,0 l/m 0 min 0 min 0 W/m 0,0 km/h (0 Bft) 93,62 %
22.05.2023 03:46 17,2 C 16,1 C 12,8 C 92 % 1014,0 hPa 0,0 l/m 0 min 0 min 0 W/m 0,0 km/h (0 Bft) 97,87 %
22.05.2023 03:48 17,2 C 16,1 C 12,8 C 92 % 1014,1 hPa 0,0 l/m 0 min 0 min 0 W/m 0,0 km/h (0 Bft) 95,74 %
22.05.2023 03:50 17,2 C 15,6 C 12,8 C 92 % 1014,1 hPa 0,0 l/m 0 min 0 min 0 W/m 3,2 km/h (1 Bft) 97,37 %
22.05.2023 03:52 17,1 C 15,6 C 12,8 C 92 % 1014,0 hPa 0,0 l/m 0 min 0 min 0 W/m 0,0 km/h (0 Bft) 96,00 %
22.05.2023 03:54 17,1 C 15,6 C 12,8 C 92 % 1014,0 hPa 0,0 l/m 0 min 0 min 0 W/m 0,0 km/h (0 Bft) 97,87 %
22.05.2023 03:56 17,1 C 15,6 C 12,8 C 92 % 1014,0 hPa 0,0 l/m 0 min 0 min 0 W/m 0,0 km/h (0 Bft) 95,74 %
22.05.2023 03:58 17,1 C 15,6 C 12,8 C 92 % 1014,0 hPa 0,0 l/m 0 min 0 min 0 W/m 0,0 km/h (0 Bft) 93,62 %
22.05.2023 04:00 17,1 C 15,6 C 12,8 C 92 % 1014,0 hPa 0,0 l/m 0 min 0 min 0 W/m 0,0 km/h (0 Bft) 95,74 %
22.05.2023 04:02 17,1 C 15,6 C 12,8 C 92 % 1014,0 hPa 0,0 l/m 0 min 0 min 0 W/m 0,0 km/h (0 Bft) 91,18 %
22.05.2023 04:04 17,1 C 15,6 C 12,2 C 92 % 1013,9 hPa 0,0 l/m 0 min 0 min 0 W/m 0,0 km/h (0 Bft) 89,80 %
22.05.2023 04:05 17,0 C 15,6 C 12,2 C 92 % 1013,9 hPa 0,0 l/m 0 min 0 min 0 W/m 0,0 km/h (0 Bft) 92,98 %
22.05.2023 04:08 17,0 C 15,6 C 12,2 C 92 % 1013,9 hPa 0,0 l/m 0 min 0 min 0 W/m 0,0 km/h (0 Bft) 91,67 %
22.05.2023 04:10 17,0 C 15,6 C 12,2 C 92 % 1013,9 hPa 0,0 l/m 0 min 0 min 0 W/m 0,0 km/h (0 Bft) 91,49 %
22.05.2023 04:12 16,9 C 15,6 C 12,2 C 92 % 1013,9 hPa 0,0 l/m 0 min 0 min 0 W/m 0,0 km/h (0 Bft) 93,48 %
22.05.2023 04:14 16,9 C 15,6 C 12,2 C 92 % 1013,8 hPa 0,0 l/m 0 min 0 min 0 W/m 0,0 km/h (0 Bft) 93,62 %
22.05.2023 04:16 16,9 C 15,6 C 12,2 C 92 % 1013,8 hPa 0,0 l/m 0 min 0 min 0 W/m 0,0 km/h (0 Bft) 95,74 %
22.05.2023 04:18 16,9 C 15,6 C 12,2 C 92 % 1013,9 hPa 0,0 l/m 0 min 0 min 0 W/m 0,0 km/h (0 Bft) 95,83 %
22.05.2023 04:20 16,9 C 15,6 C 12,2 C 92 % 1013,9 hPa 0,0 l/m 0 min 0 min 0 W/m 0,0 km/h (0 Bft) 97,87 %
22.05.2023 04:22 16,8 C 15,6 C 12,2 C 92 % 1013,9 hPa 0,0 l/m 0 min 0 min 0 W/m 0,0 km/h (0 Bft) 97,87 %
22.05.2023 04:24 16,8 C 15,6 C 12,2 C 93 % 1013,9 hPa 0,0 l/m 0 min 0 min 0 W/m 0,0 km/h (0 Bft) 97,87 %
22.05.2023 04:26 16,8 C 15,6 C 12,2 C 93 % 1013,8 hPa 0,0 l/m 0 min 0 min 0 W/m 0,0 km/h (0 Bft) 95,65 %
22.05.2023 04:28 16,8 C 15,6 C 12,2 C 93 % 1013,8 hPa 0,0 l/m 0 min 0 min 0 W/m 0,0 km/h (0 Bft) 95,74 %
22.05.2023 04:30 16,8 C 15,6 C 12,2 C 93 % 1013,9 hPa 0,0 l/m 0 min 0 min 0 W/m 0,0 km/h (0 Bft) 97,87 %
22.05.2023 04:32 16,8 C 15,6 C 12,2 C 93 % 1013,9 hPa 0,0 l/m 0 min 0 min 0 W/m 0,0 km/h (0 Bft) 97,87 %
22.05.2023 04:34 16,7 C 15,6 C 12,2 C 93 % 1013,9 hPa 0,0 l/m 0 min 0 min 0 W/m 0,0 km/h (0 Bft) 97,87 %
22.05.2023 04:36 16,7 C 15,6 C 12,2 C 93 % 1013,8 hPa 0,0 l/m 0 min 0 min 0 W/m 0,0 km/h (0 Bft) 97,87 %
22.05.2023 04:38 16,7 C 15,6 C 12,2 C 93 % 1013,9 hPa 0,0 l/m 0 min 0 min 0 W/m 0,0 km/h (0 Bft) 97,83 %
22.05.2023 04:40 16,7 C 15,6 C 12,2 C 93 % 1013,8 hPa 0,0 l/m 0 min 0 min 0 W/m 0,0 km/h (0 Bft) 97,87 %
22.05.2023 04:42 16,7 C 15,6 C 12,2 C 93 % 1013,8 hPa 0,0 l/m 0 min 0 min 0 W/m 0,0 km/h (0 Bft) 93,62 %
22.05.2023 04:44 16,7 C 15,6 C 12,2 C 93 % 1013,8 hPa 0,0 l/m 0 min 0 min 0 W/m 0,0 km/h (0 Bft) 97,87 %
22.05.2023 04:46 16,7 C 15,6 C 12,2 C 93 % 1013,7 hPa 0,0 l/m 0 min 0 min 0 W/m 0,0 km/h (0 Bft) 95,74 %
22.05.2023 04:48 16,7 C 15,6 C 12,2 C 93 % 1013,7 hPa 0,0 l/m 0 min 0 min 0 W/m 0,0 km/h (0 Bft) 100,00 %
22.05.2023 04:50 16,6 C 15,0 C 12,2 C 93 % 1013,7 hPa 0,0 l/m 0 min 0 min 0 W/m 0,0 km/h (0 Bft) 97,83 %
22.05.2023 04:52 16,6 C 15,0 C 12,2 C 93 % 1013,8 hPa 0,0 l/m 0 min 0 min 0 W/m 0,0 km/h (0 Bft) 100,00 %
22.05.2023 04:54 16,6 C 15,0 C 12,2 C 93 % 1013,7 hPa 0,0 l/m 0 min 0 min 0 W/m 0,0 km/h (0 Bft) 100,00 %
22.05.2023 04:56 16,6 C 15,0 C 11,7 C 93 % 1013,7 hPa 0,0 l/m 0 min 0 min 0 W/m 0,0 km/h (0 Bft) 100,00 %
22.05.2023 04:58 16,6 C 15,0 C 11,7 C 93 % 1013,7 hPa 0,0 l/m 0 min 0 min 0 W/m 0,0 km/h (0 Bft) 97,87 %
22.05.2023 05:00 16,6 C 15,0 C 11,7 C 93 % 1013,6 hPa 0,0 l/m 0 min 0 min 0 W/m 0,0 km/h (0 Bft) 97,87 %
22.05.2023 05:02 16,5 C 15,0 C 11,7 C 93 % 1013,7 hPa 0,0 l/m 0 min 0 min 0 W/m 0,0 km/h (0 Bft) 97,87 %
22.05.2023 05:04 16,5 C 15,0 C 11,7 C 93 % 1013,6 hPa 0,0 l/m 0 min 0 min 0 W/m 0,0 km/h (0 Bft) 97,83 %
22.05.2023 05:06 16,5 C 15,0 C 11,7 C 94 % 1013,6 hPa 0,0 l/m 0 min 0 min 0 W/m 0,0 km/h (0 Bft) 97,92 %
22.05.2023 05:08 16,5 C 15,0 C 11,7 C 94 % 1013,6 hPa 0,0 l/m 0 min 0 min 0 W/m 0,0 km/h (0 Bft) 97,83 %
22.05.2023 05:10 16,5 C 15,0 C 11,7 C 94 % 1013,7 hPa 0,0 l/m 0 min 0 min 0 W/m 0,0 km/h (0 Bft) 97,87 %
22.05.2023 05:12 16,4 C 15,0 C 11,7 C 94 % 1013,7 hPa 0,0 l/m 0 min 0 min 0 W/m 0,0 km/h (0 Bft) 97,87 %
22.05.2023 05:14 16,4 C 15,0 C 11,7 C 94 % 1013,6 hPa 0,0 l/m 0 min 0 min 0 W/m 0,0 km/h (0 Bft) 95,74 %
22.05.2023 05:16 16,4 C 15,0 C 11,7 C 94 % 1013,7 hPa 0,0 l/m 0 min 0 min 0 W/m 0,0 km/h (0 Bft) 97,87 %
22.05.2023 05:18 16,4 C 15,0 C 11,7 C 94 % 1013,7 hPa 0,0 l/m 0 min 0 min 0 W/m 0,0 km/h (0 Bft) 97,83 %
22.05.2023 05:20 16,4 C 15,0 C 11,7 C 94 % 1013,7 hPa 0,0 l/m 0 min 0 min 0 W/m 0,0 km/h (0 Bft) 97,87 %
22.05.2023 05:22 16,4 C 15,0 C 11,7 C 94 % 1013,7 hPa 0,0 l/m 0 min 0 min 0 W/m 0,0 km/h (0 Bft) 95,74 %
22.05.2023 05:24 16,4 C 15,0 C 11,7 C 94 % 1013,7 hPa 0,0 l/m 0 min 0 min 0 W/m 0,0 km/h (0 Bft) 97,87 %
22.05.2023 05:26 16,4 C 15,0 C 11,7 C 94 % 1013,7 hPa 0,0 l/m 0 min 0 min 0 W/m 0,0 km/h (0 Bft) 100,00 %
22.05.2023 05:28 16,3 C 15,0 C 11,7 C 94 % 1013,7 hPa 0,0 l/m 0 min 0 min 0 W/m 0,0 km/h (0 Bft) 100,00 %
22.05.2023 05:30 16,3 C 15,0 C 11,7 C 94 % 1013,7 hPa 0,0 l/m 0 min 0 min 0 W/m 0,0 km/h (0 Bft) 100,00 %
22.05.2023 05:32 16,3 C 15,0 C 11,7 C 94 % 1013,7 hPa 0,0 l/m 0 min 0 min 0 W/m 0,0 km/h (0 Bft) 100,00 %
22.05.2023 05:34 16,3 C 15,0 C 11,7 C 94 % 1013,7 hPa 0,0 l/m 0 min 0 min 0 W/m 0,0 km/h (0 Bft) 100,00 %
22.05.2023 05:36 16,3 C 15,0 C 11,7 C 94 % 1013,7 hPa 0,0 l/m 0 min 0 min 0 W/m 0,0 km/h (0 Bft) 100,00 %
22.05.2023 05:38 16,3 C 15,0 C 11,7 C 94 % 1013,8 hPa 0,0 l/m 0 min 0 min 0 W/m 0,0 km/h (0 Bft) 100,00 %
22.05.2023 05:40 16,2 C 15,0 C 11,7 C 95 % 1013,8 hPa 0,0 l/m 0 min 0 min 0 W/m 0,0 km/h (0 Bft) 100,00 %
22.05.2023 05:42 16,2 C 15,0 C 11,7 C 95 % 1013,8 hPa 0,0 l/m 0 min 0 min 0 W/m 0,0 km/h (0 Bft) 100,00 %
22.05.2023 05:44 16,2 C 15,0 C 11,7 C 95 % 1013,7 hPa 0,0 l/m 0 min 0 min 0 W/m 0,0 km/h (0 Bft) 100,00 %
22.05.2023 05:46 16,2 C 15,0 C 11,7 C 95 % 1013,7 hPa 0,0 l/m 0 min 0 min 0 W/m 0,0 km/h (0 Bft) 100,00 %
22.05.2023 05:48 16,2 C 15,0 C 11,7 C 95 % 1013,7 hPa 0,0 l/m 0 min 0 min 5 W/m 0,0 km/h (0 Bft) 100,00 %
22.05.2023 05:50 16,2 C 15,0 C 11,7 C 95 % 1013,7 hPa 0,0 l/m 0 min 0 min 5 W/m 0,0 km/h (0 Bft) 100,00 %
22.05.2023 05:52 16,2 C 15,0 C 11,7 C 95 % 1013,7 hPa 0,0 l/m 0 min 0 min 5 W/m 0,0 km/h (0 Bft) 100,00 %
22.05.2023 05:54 16,1 C 15,0 C 11,7 C 95 % 1013,8 hPa 0,0 l/m 0 min 0 min 6 W/m 0,0 km/h (0 Bft) 100,00 %
22.05.2023 05:56 16,1 C 15,0 C 11,7 C 95 % 1013,7 hPa 0,0 l/m 0 min 0 min 7 W/m 0,0 km/h (0 Bft) 97,87 %
22.05.2023 05:58 16,1 C 15,0 C 11,7 C 95 % 1013,7 hPa 0,0 l/m 0 min 0 min 7 W/m 0,0 km/h (0 Bft) 100,00 %
22.05.2023 06:00 16,1 C 15,0 C 11,7 C 95 % 1013,7 hPa 0,0 l/m 0 min 0 min 9 W/m 0,0 km/h (0 Bft) 100,00 %
22.05.2023 06:02 16,1 C 15,0 C 11,7 C 95 % 1013,7 hPa 0,0 l/m 0 min 0 min 10 W/m 0,0 km/h (0 Bft) 100,00 %
22.05.2023 06:04 16,1 C 15,0 C 11,7 C 95 % 1013,7 hPa 0,0 l/m 0 min 0 min 11 W/m 0,0 km/h (0 Bft) 100,00 %
22.05.2023 06:07 16,1 C 15,0 C 11,7 C 95 % 1013,7 hPa 0,0 l/m 0 min 0 min 12 W/m 0,0 km/h (0 Bft) 100,00 %
22.05.2023 06:08 16,1 C 15,0 C 11,7 C 95 % 1013,7 hPa 0,0 l/m 0 min 0 min 12 W/m 0,0 km/h (0 Bft) 98,94 %
22.05.2023 06:12 16,0 C 15,0 C 11,7 C 95 % 1013,7 hPa 0,0 l/m 0 min 0 min 14 W/m 0,0 km/h (0 Bft) 97,87 %
22.05.2023 06:16 16,0 C 15,0 C 11,7 C 95 % 1013,7 hPa 0,0 l/m 0 min 0 min 15 W/m 0,0 km/h (0 Bft) 96,77 %
22.05.2023 06:18 16,0 C 15,0 C 11,7 C 95 % 1013,7 hPa 0,0 l/m 0 min 0 min 16 W/m 0,0 km/h (0 Bft) 97,87 %
22.05.2023 06:20 15,9 C 15,0 C 11,7 C 96 % 1013,7 hPa 0,0 l/m 0 min 0 min 18 W/m 0,0 km/h (0 Bft) 95,74 %
22.05.2023 06:22 15,9 C 15,0 C 11,7 C 96 % 1013,8 hPa 0,0 l/m 0 min 0 min 18 W/m 0,0 km/h (0 Bft) 95,74 %
22.05.2023 06:24 15,9 C 15,0 C 11,7 C 96 % 1013,8 hPa 0,0 l/m 0 min 0 min 19 W/m 6,4 km/h (2 Bft) 97,87 %
22.05.2023 06:26 15,9 C 15,0 C 11,7 C 96 % 1013,7 hPa 0,0 l/m 0 min 0 min 19 W/m 3,2 km/h (1 Bft) 97,83 %
22.05.2023 06:28 15,9 C 15,0 C 11,7 C 96 % 1013,8 hPa 0,0 l/m 0 min 0 min 21 W/m 3,2 km/h (1 Bft) 97,87 %
22.05.2023 06:30 15,9 C 15,0 C 11,7 C 96 % 1013,8 hPa 0,0 l/m 0 min 0 min 21 W/m 3,2 km/h (1 Bft) 95,74 %
22.05.2023 06:32 15,9 C 15,0 C 11,7 C 96 % 1013,9 hPa 0,0 l/m 0 min 0 min 22 W/m 9,7 km/h (2 Bft) 97,87 %
22.05.2023 06:34 15,9 C 15,0 C 11,7 C 96 % 1013,9 hPa 0,0 l/m 0 min 0 min 23 W/m 6,4 km/h (2 Bft) 95,74 %
22.05.2023 06:36 15,9 C 15,0 C 11,7 C 96 % 1013,9 hPa 0,0 l/m 0 min 0 min 25 W/m 3,2 km/h (1 Bft) 97,87 %
22.05.2023 06:38 15,9 C 15,0 C 11,7 C 96 % 1013,9 hPa 0,0 l/m 0 min 0 min 25 W/m 6,4 km/h (2 Bft) 97,87 %
22.05.2023 06:40 15,9 C 15,0 C 11,7 C 96 % 1013,9 hPa 0,0 l/m 0 min 0 min 26 W/m 3,2 km/h (1 Bft) 97,83 %
22.05.2023 06:42 15,9 C 15,0 C 11,7 C 96 % 1013,9 hPa 0,0 l/m 0 min 0 min 26 W/m 3,2 km/h (1 Bft) 95,74 %
22.05.2023 06:44 15,9 C 15,0 C 11,7 C 96 % 1013,9 hPa 0,0 l/m 0 min 0 min 28 W/m 3,2 km/h (1 Bft) 95,74 %
22.05.2023 06:46 15,9 C 15,0 C 11,7 C 96 % 1013,9 hPa 0,0 l/m 0 min 0 min 29 W/m 3,2 km/h (1 Bft) 97,87 %
22.05.2023 06:48 15,9 C 15,0 C 11,7 C 96 % 1013,9 hPa 0,0 l/m 0 min 0 min 30 W/m 6,4 km/h (2 Bft) 95,74 %
22.05.2023 06:50 15,9 C 15,0 C 11,7 C 96 % 1013,9 hPa 0,0 l/m 0 min 0 min 32 W/m 3,2 km/h (1 Bft) 95,74 %
22.05.2023 06:52 15,9 C 15,0 C 11,7 C 96 % 1013,9 hPa 0,0 l/m 0 min 0 min 33 W/m 6,4 km/h (2 Bft) 95,65 %
22.05.2023 06:54 15,9 C 15,0 C 11,7 C 96 % 1013,9 hPa 0,0 l/m 0 min 0 min 34 W/m 6,4 km/h (2 Bft) 95,74 %
22.05.2023 06:56 15,9 C 15,0 C 11,7 C 96 % 1013,9 hPa 0,0 l/m 0 min 0 min 35 W/m 6,4 km/h (2 Bft) 97,87 %
22.05.2023 06:58 15,9 C 15,0 C 11,7 C 96 % 1013,9 hPa 0,0 l/m 0 min 0 min 35 W/m 0,0 km/h (0 Bft) 97,87 %
22.05.2023 07:00 15,9 C 15,0 C 11,7 C 96 % 1014,0 hPa 0,0 l/m 0 min 0 min 35 W/m 9,7 km/h (2 Bft) 97,87 %
22.05.2023 07:02 15,9 C 15,0 C 11,7 C 96 % 1013,9 hPa 0,0 l/m 0 min 0 min 37 W/m 3,2 km/h (1 Bft) 97,87 %
22.05.2023 07:04 15,9 C 15,0 C 11,7 C 97 % 1013,9 hPa 0,0 l/m 0 min 0 min 39 W/m 6,4 km/h (2 Bft) 95,92 %
22.05.2023 07:06 15,9 C 15,0 C 11,7 C 97 % 1013,9 hPa 0,0 l/m 0 min 0 min 40 W/m 3,2 km/h (1 Bft) 93,48 %
22.05.2023 07:08 15,9 C 15,0 C 11,7 C 97 % 1013,9 hPa 0,0 l/m 0 min 0 min 40 W/m 3,2 km/h (1 Bft) 97,22 %
22.05.2023 07:10 15,9 C 15,0 C 11,7 C 97 % 1014,0 hPa 0,0 l/m 0 min 0 min 42 W/m 3,2 km/h (1 Bft) 93,48 %
22.05.2023 07:12 15,9 C 15,0 C 11,7 C 97 % 1013,9 hPa 0,0 l/m 0 min 0 min 43 W/m 3,2 km/h (1 Bft) 95,74 %
22.05.2023 07:14 15,9 C 15,6 C 12,2 C 97 % 1013,9 hPa 0,0 l/m 0 min 0 min 46 W/m 3,2 km/h (1 Bft) 97,87 %
22.05.2023 07:16 15,9 C 15,6 C 12,2 C 97 % 1013,9 hPa 0,0 l/m 0 min 0 min 47 W/m 3,2 km/h (1 Bft) 97,87 %
22.05.2023 07:18 15,9 C 15,6 C 12,2 C 97 % 1014,0 hPa 0,0 l/m 0 min 0 min 48 W/m 3,2 km/h (1 Bft) 97,87 %
22.05.2023 07:20 15,9 C 15,6 C 12,2 C 97 % 1013,9 hPa 0,0 l/m 0 min 0 min 51 W/m 3,2 km/h (1 Bft) 97,87 %
22.05.2023 07:22 15,9 C 15,6 C 12,2 C 97 % 1013,9 hPa 0,0 l/m 0 min 0 min 54 W/m 3,2 km/h (1 Bft) 97,83 %
22.05.2023 07:24 15,9 C 15,6 C 12,2 C 97 % 1014,0 hPa 0,0 l/m 0 min 0 min 60 W/m 3,2 km/h (1 Bft) 97,87 %
22.05.2023 07:26 16,0 C 15,6 C 12,2 C 97 % 1014,0 hPa 0,0 l/m 0 min 0 min 66 W/m 3,2 km/h (1 Bft) 97,87 %
22.05.2023 07:28 16,0 C 15,6 C 12,2 C 97 % 1014,0 hPa 0,0 l/m 0 min 0 min 66 W/m 3,2 km/h (1 Bft) 95,74 %
22.05.2023 07:30 16,0 C 15,6 C 12,2 C 97 % 1014,0 hPa 0,0 l/m 0 min 0 min 60 W/m 3,2 km/h (1 Bft) 97,87 %
22.05.2023 07:32 16,0 C 15,6 C 12,2 C 97 % 1014,0 hPa 0,0 l/m 0 min 0 min 59 W/m 3,2 km/h (1 Bft) 97,87 %
22.05.2023 07:34 16,1 C 15,6 C 12,2 C 97 % 1014,1 hPa 0,0 l/m 0 min 0 min 61 W/m 6,4 km/h (2 Bft) 97,87 %
22.05.2023 07:36 16,1 C 15,6 C 12,2 C 97 % 1014,0 hPa 0,0 l/m 0 min 0 min 63 W/m 0,0 km/h (0 Bft) 97,83 %
22.05.2023 07:38 16,1 C 15,6 C 12,2 C 97 % 1014,0 hPa 0,0 l/m 0 min 0 min 72 W/m 3,2 km/h (1 Bft) 97,87 %
22.05.2023 07:40 16,1 C 15,6 C 12,2 C 97 % 1014,0 hPa 0,0 l/m 0 min 0 min 89 W/m 3,2 km/h (1 Bft) 95,74 %
22.05.2023 07:42 16,1 C 16,1 C 12,2 C 97 % 1014,1 hPa 0,0 l/m 0 min 0 min 99 W/m 3,2 km/h (1 Bft) 97,87 %
22.05.2023 07:44 16,1 C 16,1 C 12,8 C 97 % 1014,0 hPa 0,0 l/m 0 min 0 min 111 W/m 0,0 km/h (0 Bft) 97,87 %
22.05.2023 07:46 16,2 C 16,1 C 12,8 C 97 % 1014,1 hPa 0,0 l/m 0 min 0 min 114 W/m 6,4 km/h (2 Bft) 95,74 %
22.05.2023 07:48 16,2 C 16,1 C 12,8 C 97 % 1014,2 hPa 0,0 l/m 0 min 0 min 121 W/m 3,2 km/h (1 Bft) 100,00 %
22.05.2023 07:50 16,2 C 16,1 C 12,8 C 97 % 1014,1 hPa 0,0 l/m 0 min 0 min 141 W/m 6,4 km/h (2 Bft) 93,62 %
22.05.2023 07:52 16,2 C 16,1 C 12,8 C 97 % 1014,2 hPa 0,0 l/m 2 min 0 min 173 W/m 12,9 km/h (3 Bft) 100,00 %
22.05.2023 07:54 16,2 C 16,1 C 12,8 C 97 % 1014,1 hPa 0,0 l/m 2 min 0 min 188 W/m 9,7 km/h (2 Bft) 100,00 %
22.05.2023 07:56 16,2 C 16,7 C 12,8 C 97 % 1014,1 hPa 0,0 l/m 2 min 0 min 178 W/m 6,4 km/h (2 Bft) 100,00 %
22.05.2023 07:58 16,2 C 16,7 C 12,8 C 97 % 1014,1 hPa 0,0 l/m 2 min 0 min 179 W/m 6,4 km/h (2 Bft) 100,00 %
22.05.2023 08:00 16,3 C 16,7 C 12,8 C 97 % 1014,1 hPa 0,0 l/m 2 min 0 min 173 W/m 6,4 km/h (2 Bft) 97,87 %
22.05.2023 08:02 16,3 C 16,7 C 12,8 C 97 % 1014,1 hPa 0,0 l/m 0 min 0 min 165 W/m 6,4 km/h (2 Bft) 97,83 %
22.05.2023 08:04 16,3 C 16,7 C 12,8 C 97 % 1014,1 hPa 0,0 l/m 2 min 0 min 193 W/m 3,2 km/h (1 Bft) 100,00 %
22.05.2023 08:06 16,4 C 16,7 C 12,8 C 97 % 1014,1 hPa 0,0 l/m 0 min 0 min 174 W/m 3,2 km/h (1 Bft) 100,00 %
22.05.2023 08:08 16,4 C 16,7 C 12,8 C 97 % 1014,2 hPa 0,0 l/m 0 min 0 min 120 W/m 3,2 km/h (1 Bft) 100,00 %
22.05.2023 08:10 16,4 C 16,7 C 12,8 C 97 % 1014,2 hPa 0,0 l/m 0 min 0 min 115 W/m 6,4 km/h (2 Bft) 97,87 %
22.05.2023 08:12 16,4 C 16,7 C 12,8 C 97 % 1014,1 hPa 0,0 l/m 0 min 0 min 133 W/m 3,2 km/h (1 Bft) 100,00 %
22.05.2023 08:14 16,5 C 16,7 C 12,8 C 97 % 1014,1 hPa 0,0 l/m 0 min 0 min 127 W/m 9,7 km/h (2 Bft) 100,00 %
22.05.2023 08:16 16,5 C 16,7 C 12,8 C 97 % 1014,2 hPa 0,0 l/m 0 min 0 min 110 W/m 9,7 km/h (2 Bft) 100,00 %
22.05.2023 08:18 16,4 C 16,1 C 12,8 C 97 % 1014,2 hPa 0,0 l/m 0 min 0 min 102 W/m 9,7 km/h (2 Bft) 100,00 %
22.05.2023 08:20 16,4 C 16,1 C 12,8 C 97 % 1014,2 hPa 0,0 l/m 0 min 0 min 106 W/m 6,4 km/h (2 Bft) 100,00 %
22.05.2023 08:22 16,4 C 16,1 C 12,8 C 97 % 1014,2 hPa 0,0 l/m 0 min 0 min 85 W/m 9,7 km/h (2 Bft) 100,00 %
22.05.2023 08:24 16,4 C 16,1 C 12,8 C 97 % 1014,3 hPa 0,0 l/m 0 min 0 min 84 W/m 6,4 km/h (2 Bft) 100,00 %
22.05.2023 08:26 16,4 C 16,1 C 12,8 C 97 % 1014,2 hPa 0,0 l/m 0 min 0 min 84 W/m 3,2 km/h (1 Bft) 100,00 %
22.05.2023 08:28 16,4 C 16,1 C 12,8 C 97 % 1014,2 hPa 0,0 l/m 0 min 0 min 93 W/m 6,4 km/h (2 Bft) 100,00 %
22.05.2023 08:30 16,4 C 16,1 C 12,8 C 97 % 1014,2 hPa 0,0 l/m 0 min 0 min 106 W/m 6,4 km/h (2 Bft) 97,87 %
22.05.2023 08:32 16,4 C 16,1 C 12,8 C 97 % 1014,3 hPa 0,0 l/m 0 min 0 min 105 W/m 6,4 km/h (2 Bft) 100,00 %
22.05.2023 08:34 16,5 C 16,1 C 12,8 C 97 % 1014,3 hPa 0,0 l/m 0 min 0 min 102 W/m 3,2 km/h (1 Bft) 100,00 %
22.05.2023 08:36 16,5 C 16,1 C 12,8 C 97 % 1014,3 hPa 0,0 l/m 0 min 0 min 114 W/m 6,4 km/h (2 Bft) 97,87 %
22.05.2023 08:38 16,5 C 16,1 C 12,8 C 97 % 1014,4 hPa 0,0 l/m 0 min 0 min 126 W/m 6,4 km/h (2 Bft) 100,00 %
22.05.2023 08:40 16,5 C 16,1 C 12,8 C 97 % 1014,4 hPa 0,0 l/m 0 min 0 min 134 W/m 6,4 km/h (2 Bft) 100,00 %
22.05.2023 08:42 16,5 C 16,1 C 12,8 C 96 % 1014,4 hPa 0,0 l/m 0 min 0 min 140 W/m 12,9 km/h (3 Bft) 95,74 %
22.05.2023 08:44 16,5 C 16,1 C 12,8 C 96 % 1014,4 hPa 0,0 l/m 0 min 0 min 142 W/m 6,4 km/h (2 Bft) 95,74 %
22.05.2023 08:46 16,5 C 16,1 C 12,8 C 96 % 1014,4 hPa 0,0 l/m 0 min 0 min 159 W/m 9,7 km/h (2 Bft) 97,87 %
22.05.2023 08:48 16,5 C 16,7 C 12,8 C 96 % 1014,5 hPa 0,0 l/m 0 min 0 min 159 W/m 6,4 km/h (2 Bft) 95,74 %
22.05.2023 08:50 16,5 C 16,7 C 12,8 C 96 % 1014,5 hPa 0,0 l/m 0 min 0 min 150 W/m 6,4 km/h (2 Bft) 97,87 %
22.05.2023 08:52 16,6 C 16,7 C 12,8 C 96 % 1014,5 hPa 0,0 l/m 0 min 0 min 151 W/m 9,7 km/h (2 Bft) 95,74 %
22.05.2023 08:54 16,6 C 16,7 C 12,8 C 96 % 1014,6 hPa 0,0 l/m 0 min 0 min 147 W/m 3,2 km/h (1 Bft) 97,83 %
22.05.2023 08:56 16,6 C 16,7 C 12,8 C 96 % 1014,6 hPa 0,0 l/m 0 min 0 min 138 W/m 9,7 km/h (2 Bft) 95,74 %
22.05.2023 08:58 16,6 C 16,7 C 12,8 C 96 % 1014,6 hPa 0,0 l/m 0 min 0 min 145 W/m 6,4 km/h (2 Bft) 95,74 %
22.05.2023 09:00 16,6 C 16,7 C 12,8 C 96 % 1014,6 hPa 0,0 l/m 0 min 0 min 144 W/m 6,4 km/h (2 Bft) 97,87 %
22.05.2023 09:02 16,6 C 16,7 C 12,8 C 96 % 1014,7 hPa 0,0 l/m 0 min 0 min 134 W/m 6,4 km/h (2 Bft) 91,49 %
22.05.2023 09:04 16,6 C 16,7 C 12,8 C 96 % 1014,6 hPa 0,0 l/m 0 min 0 min 129 W/m 6,4 km/h (2 Bft) 97,96 %
22.05.2023 09:06 16,6 C 16,7 C 12,8 C 96 % 1014,7 hPa 0,0 l/m 0 min 0 min 133 W/m 9,7 km/h (2 Bft) 93,10 %
22.05.2023 09:08 16,6 C 16,7 C 12,8 C 96 % 1014,7 hPa 0,0 l/m 0 min 0 min 142 W/m 6,4 km/h (2 Bft) 97,14 %
22.05.2023 09:10 16,6 C 16,7 C 12,8 C 96 % 1014,6 hPa 0,0 l/m 0 min 0 min 143 W/m 6,4 km/h (2 Bft) 95,74 %
22.05.2023 09:12 16,6 C 16,7 C 13,3 C 96 % 1014,7 hPa 0,0 l/m 0 min 0 min 159 W/m 9,7 km/h (2 Bft) 95,74 %
22.05.2023 09:14 16,6 C 16,7 C 13,3 C 96 % 1014,7 hPa 0,0 l/m 0 min 0 min 171 W/m 3,2 km/h (1 Bft) 93,62 %
22.05.2023 09:16 16,7 C 16,7 C 13,3 C 96 % 1014,7 hPa 0,0 l/m 0 min 0 min 186 W/m 9,7 km/h (2 Bft) 95,74 %
22.05.2023 09:18 16,7 C 16,7 C 13,3 C 96 % 1014,7 hPa 0,0 l/m 0 min 0 min 192 W/m 9,7 km/h (2 Bft) 95,65 %
22.05.2023 09:20 16,7 C 17,2 C 13,3 C 96 % 1014,7 hPa 0,0 l/m 0 min 0 min 194 W/m 3,2 km/h (1 Bft) 97,87 %
22.05.2023 09:22 16,8 C 17,2 C 13,3 C 96 % 1014,8 hPa 0,0 l/m 0 min 0 min 190 W/m 9,7 km/h (2 Bft) 97,87 %
22.05.2023 09:24 16,8 C 17,2 C 13,3 C 96 % 1014,9 hPa 0,0 l/m 0 min 0 min 197 W/m 12,9 km/h (3 Bft) 97,87 %
22.05.2023 09:26 16,8 C 17,2 C 13,3 C 96 % 1014,9 hPa 0,0 l/m 0 min 0 min 201 W/m 6,4 km/h (2 Bft) 97,87 %
22.05.2023 09:28 16,9 C 17,2 C 13,3 C 96 % 1014,9 hPa 0,0 l/m 0 min 0 min 199 W/m 6,4 km/h (2 Bft) 97,87 %
22.05.2023 09:30 16,9 C 17,8 C 13,3 C 96 % 1014,9 hPa 0,0 l/m 0 min 0 min 212 W/m 9,7 km/h (2 Bft) 97,87 %
22.05.2023 09:32 17,0 C 17,8 C 13,9 C 96 % 1014,9 hPa 0,0 l/m 0 min 0 min 210 W/m 6,4 km/h (2 Bft) 93,48 %
22.05.2023 09:34 17,0 C 17,8 C 13,9 C 96 % 1014,9 hPa 0,0 l/m 0 min 0 min 225 W/m 6,4 km/h (2 Bft) 97,87 %
22.05.2023 09:36 17,0 C 17,8 C 13,9 C 96 % 1014,9 hPa 0,0 l/m 0 min 0 min 228 W/m 6,4 km/h (2 Bft) 97,87 %
22.05.2023 09:38 17,1 C 17,8 C 13,9 C 95 % 1014,9 hPa 0,0 l/m 0 min 0 min 212 W/m 12,9 km/h (3 Bft) 97,87 %
22.05.2023 09:40 17,1 C 17,8 C 13,9 C 95 % 1014,9 hPa 0,0 l/m 0 min 0 min 195 W/m 6,4 km/h (2 Bft) 97,87 %
22.05.2023 09:42 17,1 C 17,2 C 13,9 C 95 % 1014,9 hPa 0,0 l/m 0 min 0 min 197 W/m 9,7 km/h (2 Bft) 97,87 %
22.05.2023 09:44 17,1 C 17,2 C 13,9 C 95 % 1014,9 hPa 0,0 l/m 0 min 0 min 185 W/m 12,9 km/h (3 Bft) 95,65 %
22.05.2023 09:46 17,1 C 17,2 C 13,9 C 95 % 1015,0 hPa 0,0 l/m 0 min 0 min 198 W/m 9,7 km/h (2 Bft) 91,49 %
22.05.2023 09:48 17,1 C 17,2 C 13,3 C 95 % 1014,9 hPa 0,0 l/m 0 min 0 min 208 W/m 6,4 km/h (2 Bft) 95,74 %
22.05.2023 09:50 17,1 C 17,2 C 13,9 C 94 % 1015,0 hPa 0,0 l/m 0 min 0 min 206 W/m 6,4 km/h (2 Bft) 95,74 %
22.05.2023 09:52 17,2 C 17,2 C 13,9 C 94 % 1015,0 hPa 0,0 l/m 0 min 0 min 197 W/m 6,4 km/h (2 Bft) 95,74 %
22.05.2023 09:54 17,2 C 17,2 C 13,9 C 94 % 1015,0 hPa 0,0 l/m 0 min 0 min 207 W/m 16,1 km/h (3 Bft) 95,74 %
22.05.2023 09:56 17,2 C 17,2 C 13,9 C 94 % 1015,0 hPa 0,0 l/m 0 min 0 min 279 W/m 9,7 km/h (2 Bft) 93,62 %
22.05.2023 09:58 17,2 C 17,8 C 13,9 C 94 % 1015,1 hPa 0,0 l/m 0 min 0 min 265 W/m 6,4 km/h (2 Bft) 95,65 %
22.05.2023 10:00 17,2 C 17,8 C 13,9 C 94 % 1015,1 hPa 0,0 l/m 0 min 0 min 249 W/m 6,4 km/h (2 Bft) 95,74 %
22.05.2023 10:02 17,2 C 17,2 C 13,9 C 94 % 1015,1 hPa 0,0 l/m 0 min 0 min 247 W/m 19,3 km/h (3 Bft) 93,62 %
22.05.2023 10:04 17,2 C 17,8 C 13,9 C 94 % 1015,2 hPa 0,0 l/m 0 min 0 min 243 W/m 6,4 km/h (2 Bft) 93,75 %
22.05.2023 10:06 17,2 C 17,8 C 13,9 C 94 % 1015,1 hPa 0,0 l/m 0 min 0 min 220 W/m 6,4 km/h (2 Bft) 98,28 %
22.05.2023 10:08 17,2 C 17,8 C 13,9 C 94 % 1015,1 hPa 0,0 l/m 0 min 0 min 224 W/m 16,1 km/h (3 Bft) 94,44 %
22.05.2023 10:10 17,2 C 17,8 C 13,9 C 94 % 1015,1 hPa 0,0 l/m 0 min 0 min 246 W/m 9,7 km/h (2 Bft) 97,83 %
22.05.2023 10:12 17,2 C 17,8 C 13,9 C 94 % 1015,1 hPa 0,0 l/m 0 min 0 min 249 W/m 6,4 km/h (2 Bft) 97,87 %
22.05.2023 10:14 17,2 C 17,2 C 13,9 C 93 % 1015,1 hPa 0,0 l/m 0 min 0 min 257 W/m 9,7 km/h (2 Bft) 95,74 %
22.05.2023 10:16 17,3 C 17,8 C 13,9 C 93 % 1015,1 hPa 0,0 l/m 0 min 0 min 260 W/m 12,9 km/h (3 Bft) 97,87 %
22.05.2023 10:18 17,3 C 17,2 C 13,9 C 93 % 1015,1 hPa 0,0 l/m 0 min 0 min 259 W/m 16,1 km/h (3 Bft) 97,87 %
22.05.2023 10:20 17,3 C 17,2 C 13,9 C 93 % 1015,1 hPa 0,0 l/m 0 min 0 min 237 W/m 6,4 km/h (2 Bft) 95,74 %
22.05.2023 10:22 17,3 C 17,8 C 13,9 C 93 % 1015,1 hPa 0,0 l/m 0 min 0 min 238 W/m 12,9 km/h (3 Bft) 97,83 %
22.05.2023 10:24 17,3 C 17,2 C 13,9 C 93 % 1015,1 hPa 0,0 l/m 0 min 0 min 221 W/m 6,4 km/h (2 Bft) 97,87 %
22.05.2023 10:26 17,3 C 17,2 C 13,9 C 93 % 1015,2 hPa 0,0 l/m 0 min 0 min 212 W/m 6,4 km/h (2 Bft) 97,87 %
22.05.2023 10:28 17,3 C 17,2 C 13,9 C 93 % 1015,2 hPa 0,0 l/m 0 min 0 min 208 W/m 9,7 km/h (2 Bft) 100,00 %
22.05.2023 10:30 17,4 C 17,8 C 13,9 C 93 % 1015,2 hPa 0,0 l/m 0 min 0 min 209 W/m 6,4 km/h (2 Bft) 100,00 %
22.05.2023 10:32 17,4 C 17,8 C 13,9 C 93 % 1015,2 hPa 0,0 l/m 0 min 0 min 217 W/m 6,4 km/h (2 Bft) 97,87 %
22.05.2023 10:34 17,4 C 17,8 C 14,4 C 93 % 1015,2 hPa 0,0 l/m 0 min 0 min 217 W/m 6,4 km/h (2 Bft) 100,00 %
22.05.2023 10:36 17,4 C 17,8 C 13,9 C 93 % 1015,2 hPa 0,0 l/m 0 min 0 min 225 W/m 9,7 km/h (2 Bft) 100,00 %
22.05.2023 10:38 17,5 C 17,8 C 13,9 C 92 % 1015,2 hPa 0,0 l/m 0 min 0 min 228 W/m 12,9 km/h (3 Bft) 97,87 %
22.05.2023 10:40 17,4 C 17,2 C 13,9 C 92 % 1015,2 hPa 0,0 l/m 0 min 0 min 220 W/m 16,1 km/h (3 Bft) 97,87 %
22.05.2023 10:42 17,4 C 17,2 C 13,9 C 92 % 1015,2 hPa 0,0 l/m 0 min 0 min 207 W/m 12,9 km/h (3 Bft) 97,87 %
22.05.2023 10:44 17,3 C 17,2 C 13,9 C 92 % 1015,2 hPa 0,0 l/m 0 min 0 min 211 W/m 9,7 km/h (2 Bft) 95,74 %
22.05.2023 10:46 17,3 C 17,2 C 13,9 C 92 % 1015,3 hPa 0,0 l/m 0 min 0 min 213 W/m 6,4 km/h (2 Bft) 100,00 %
22.05.2023 10:48 17,3 C 17,2 C 13,9 C 92 % 1015,3 hPa 0,0 l/m 0 min 0 min 212 W/m 9,7 km/h (2 Bft) 95,65 %
22.05.2023 10:50 17,3 C 17,2 C 13,9 C 92 % 1015,2 hPa 0,0 l/m 0 min 0 min 205 W/m 16,1 km/h (3 Bft) 93,62 %
22.05.2023 10:52 17,3 C 17,2 C 13,9 C 92 % 1015,3 hPa 0,0 l/m 0 min 0 min 203 W/m 19,3 km/h (3 Bft) 97,87 %
22.05.2023 10:54 17,3 C 17,8 C 13,9 C 92 % 1015,3 hPa 0,0 l/m 0 min 0 min 216 W/m 16,1 km/h (3 Bft) 97,87 %
22.05.2023 10:56 17,3 C 17,8 C 13,9 C 92 % 1015,3 hPa 0,0 l/m 0 min 0 min 222 W/m 16,1 km/h (3 Bft) 95,74 %
22.05.2023 10:58 17,3 C 17,8 C 13,9 C 92 % 1015,3 hPa 0,0 l/m 0 min 0 min 240 W/m 16,1 km/h (3 Bft) 95,74 %
22.05.2023 11:00 17,4 C 17,8 C 13,9 C 92 % 1015,3 hPa 0,0 l/m 0 min 0 min 244 W/m 9,7 km/h (2 Bft) 97,87 %
22.05.2023 11:02 17,4 C 17,8 C 13,9 C 91 % 1015,3 hPa 0,0 l/m 0 min 0 min 233 W/m 9,7 km/h (2 Bft) 95,74 %
22.05.2023 11:04 17,4 C 17,8 C 13,9 C 91 % 1015,3 hPa 0,0 l/m 0 min 0 min 212 W/m 9,7 km/h (2 Bft) 97,87 %
22.05.2023 11:06 17,4 C 17,8 C 13,9 C 91 % 1015,3 hPa 0,0 l/m 0 min 0 min 232 W/m 16,1 km/h (3 Bft) 98,31 %
22.05.2023 11:08 17,4 C 17,8 C 13,9 C 91 % 1015,4 hPa 0,0 l/m 0 min 0 min 237 W/m 12,9 km/h (3 Bft) 94,29 %
22.05.2023 11:10 17,4 C 17,8 C 13,9 C 91 % 1015,4 hPa 0,0 l/m 0 min 0 min 223 W/m 16,1 km/h (3 Bft) 97,87 %
22.05.2023 11:12 17,4 C 17,8 C 13,9 C 90 % 1015,4 hPa 0,0 l/m 0 min 0 min 250 W/m 12,9 km/h (3 Bft) 97,83 %
22.05.2023 11:14 17,4 C 17,8 C 13,9 C 90 % 1015,4 hPa 0,0 l/m 0 min 0 min 253 W/m 16,1 km/h (3 Bft) 95,74 %
22.05.2023 11:16 17,5 C 17,8 C 13,9 C 90 % 1015,4 hPa 0,0 l/m 0 min 0 min 258 W/m 9,7 km/h (2 Bft) 97,87 %
22.05.2023 11:18 17,5 C 17,8 C 13,9 C 90 % 1015,4 hPa 0,0 l/m 0 min 0 min 250 W/m 12,9 km/h (3 Bft) 97,87 %
22.05.2023 11:20 17,4 C 17,8 C 13,9 C 90 % 1015,4 hPa 0,0 l/m 0 min 0 min 235 W/m 12,9 km/h (3 Bft) 95,74 %
22.05.2023 11:22 17,4 C 17,8 C 13,9 C 90 % 1015,4 hPa 0,0 l/m 0 min 0 min 242 W/m 12,9 km/h (3 Bft) 95,74 %
22.05.2023 11:24 17,4 C 17,2 C 13,9 C 90 % 1015,4 hPa 0,0 l/m 0 min 0 min 237 W/m 9,7 km/h (2 Bft) 100,00 %
22.05.2023 11:26 17,4 C 17,8 C 13,9 C 90 % 1015,4 hPa 0,0 l/m 0 min 0 min 236 W/m 12,9 km/h (3 Bft) 95,74 %
22.05.2023 11:28 17,4 C 17,8 C 13,9 C 90 % 1015,4 hPa 0,0 l/m 0 min 0 min 240 W/m 9,7 km/h (2 Bft) 100,00 %
22.05.2023 11:30 17,5 C 17,8 C 13,9 C 90 % 1015,4 hPa 0,0 l/m 0 min 0 min 228 W/m 6,4 km/h (2 Bft) 97,87 %
22.05.2023 11:32 17,6 C 17,8 C 13,9 C 90 % 1015,4 hPa 0,0 l/m 0 min 0 min 229 W/m 12,9 km/h (3 Bft) 97,87 %
22.05.2023 11:34 17,6 C 17,8 C 13,9 C 90 % 1015,4 hPa 0,0 l/m 0 min 0 min 256 W/m 6,4 km/h (2 Bft) 100,00 %
22.05.2023 11:36 17,6 C 17,8 C 13,9 C 90 % 1015,4 hPa 0,0 l/m 0 min 0 min 258 W/m 6,4 km/h (2 Bft) 100,00 %
22.05.2023 11:38 17,7 C 17,8 C 13,9 C 90 % 1015,4 hPa 0,0 l/m 0 min 0 min 291 W/m 12,9 km/h (3 Bft) 100,00 %
22.05.2023 11:40 17,7 C 18,3 C 14,4 C 90 % 1015,4 hPa 0,0 l/m 0 min 0 min 265 W/m 12,9 km/h (3 Bft) 100,00 %
22.05.2023 11:42 17,7 C 18,3 C 14,4 C 90 % 1015,4 hPa 0,0 l/m 0 min 0 min 254 W/m 6,4 km/h (2 Bft) 100,00 %
22.05.2023 11:44 17,8 C 18,3 C 14,4 C 90 % 1015,4 hPa 0,0 l/m 0 min 0 min 258 W/m 6,4 km/h (2 Bft) 97,87 %
22.05.2023 11:46 17,8 C 18,3 C 14,4 C 90 % 1015,4 hPa 0,0 l/m 0 min 0 min 260 W/m 12,9 km/h (3 Bft) 100,00 %
22.05.2023 11:48 17,8 C 18,3 C 14,4 C 90 % 1015,4 hPa 0,0 l/m 0 min 0 min 265 W/m 9,7 km/h (2 Bft) 100,00 %
22.05.2023 11:50 17,8 C 18,3 C 14,4 C 90 % 1015,4 hPa 0,0 l/m 0 min 0 min 252 W/m 6,4 km/h (2 Bft) 100,00 %
22.05.2023 11:52 17,8 C 17,8 C 14,4 C 90 % 1015,4 hPa 0,0 l/m 0 min 0 min 246 W/m 9,7 km/h (2 Bft) 97,87 %
22.05.2023 11:54 17,8 C 17,8 C 14,4 C 90 % 1015,4 hPa 0,0 l/m 0 min 0 min 265 W/m 12,9 km/h (3 Bft) 100,00 %
22.05.2023 11:56 17,8 C 17,8 C 14,4 C 90 % 1015,5 hPa 0,0 l/m 0 min 0 min 282 W/m 0,0 km/h (0 Bft) 100,00 %
22.05.2023 11:58 17,8 C 17,8 C 14,4 C 90 % 1015,4 hPa 0,0 l/m 0 min 0 min 269 W/m 12,9 km/h (3 Bft) 100,00 %
22.05.2023 12:00 17,8 C 17,8 C 14,4 C 90 % 1015,5 hPa 0,0 l/m 0 min 0 min 264 W/m 9,7 km/h (2 Bft) 100,00 %
22.05.2023 12:02 17,7 C 17,8 C 14,4 C 90 % 1015,4 hPa 0,0 l/m 0 min 0 min 262 W/m 6,4 km/h (2 Bft) 100,00 %
22.05.2023 12:04 17,7 C 17,8 C 13,9 C 90 % 1015,5 hPa 0,0 l/m 0 min 0 min 254 W/m 12,9 km/h (3 Bft) 100,00 %
22.05.2023 12:07 17,8 C 18,3 C 14,4 C 90 % 1015,5 hPa 0,0 l/m 0 min 0 min 288 W/m 9,7 km/h (2 Bft) 100,00 %
22.05.2023 12:08 17,8 C 18,3 C 14,4 C 90 % 1015,5 hPa 0,0 l/m 0 min 0 min 297 W/m 9,7 km/h (2 Bft) 98,98 %
22.05.2023 12:10 17,8 C 18,3 C 14,4 C 90 % 1015,5 hPa 0,0 l/m 0 min 0 min 278 W/m 9,7 km/h (2 Bft) 100,00 %
22.05.2023 12:12 17,8 C 18,3 C 14,4 C 90 % 1015,5 hPa 0,0 l/m 0 min 0 min 297 W/m 9,7 km/h (2 Bft) 100,00 %
22.05.2023 12:14 17,8 C 18,3 C 14,4 C 90 % 1015,5 hPa 0,0 l/m 0 min 0 min 328 W/m 9,7 km/h (2 Bft) 97,87 %
22.05.2023 12:16 17,9 C 18,9 C 15,0 C 90 % 1015,5 hPa 0,0 l/m 0 min 0 min 370 W/m 16,1 km/h (3 Bft) 97,87 %
22.05.2023 12:18 17,9 C 18,3 C 15,0 C 90 % 1015,5 hPa 0,0 l/m 0 min 0 min 376 W/m 12,9 km/h (3 Bft) 95,65 %
22.05.2023 12:20 17,9 C 18,3 C 15,0 C 89 % 1015,5 hPa 0,0 l/m 0 min 0 min 341 W/m 12,9 km/h (3 Bft) 97,87 %
22.05.2023 12:22 17,9 C 18,3 C 15,0 C 90 % 1015,5 hPa 0,0 l/m 0 min 0 min 337 W/m 6,4 km/h (2 Bft) 97,87 %
22.05.2023 12:24 17,9 C 18,9 C 15,0 C 89 % 1015,5 hPa 0,0 l/m 0 min 0 min 386 W/m 6,4 km/h (2 Bft) 95,74 %
22.05.2023 12:26 18,0 C 18,9 C 15,0 C 90 % 1015,5 hPa 0,0 l/m 2 min 0 min 457 W/m 9,7 km/h (2 Bft) 97,87 %
22.05.2023 12:28 18,1 C 19,4 C 15,6 C 90 % 1015,4 hPa 0,0 l/m 2 min 0 min 448 W/m 9,7 km/h (2 Bft) 97,87 %
22.05.2023 12:30 18,2 C 19,4 C 15,6 C 90 % 1015,4 hPa 0,0 l/m 2 min 0 min 432 W/m 6,4 km/h (2 Bft) 97,83 %
22.05.2023 12:32 18,2 C 19,4 C 15,6 C 90 % 1015,4 hPa 0,0 l/m 2 min 0 min 458 W/m 12,9 km/h (3 Bft) 97,87 %
22.05.2023 12:34 18,3 C 19,4 C 16,1 C 89 % 1015,4 hPa 0,0 l/m 2 min 0 min 502 W/m 12,9 km/h (3 Bft) 95,74 %
22.05.2023 12:36 18,4 C 20,6 C 16,1 C 89 % 1015,4 hPa 0,0 l/m 2 min 0 min 523 W/m 6,4 km/h (2 Bft) 93,62 %
22.05.2023 12:38 18,4 C 20,6 C 16,7 C 89 % 1015,4 hPa 0,0 l/m 2 min 0 min 556 W/m 12,9 km/h (3 Bft) 95,74 %
22.05.2023 12:40 18,6 C 21,1 C 17,2 C 89 % 1015,4 hPa 0,0 l/m 2 min 0 min 591 W/m 9,7 km/h (2 Bft) 95,74 %
22.05.2023 12:42 18,8 C 22,2 C 17,8 C 89 % 1015,4 hPa 0,0 l/m 2 min 0 min 725 W/m 6,4 km/h (2 Bft) 93,62 %
22.05.2023 12:44 19,0 C 22,8 C 18,3 C 89 % 1015,3 hPa 0,0 l/m 2 min 0 min 758 W/m 12,9 km/h (3 Bft) 93,48 %
22.05.2023 12:46 19,3 C 22,2 C 18,3 C 88 % 1015,3 hPa 0,0 l/m 2 min 0 min 800 W/m 12,9 km/h (3 Bft) 95,74 %
22.05.2023 12:48 19,4 C 22,2 C 18,3 C 87 % 1015,3 hPa 0,0 l/m 2 min 0 min 446 W/m 6,4 km/h (2 Bft) 95,74 %
22.05.2023 12:50 19,5 C 21,7 C 17,8 C 86 % 1015,3 hPa 0,0 l/m 0 min 0 min 370 W/m 12,9 km/h (3 Bft) 93,62 %
22.05.2023 12:52 19,6 C 22,8 C 18,3 C 86 % 1015,3 hPa 0,0 l/m 2 min 0 min 412 W/m 6,4 km/h (2 Bft) 93,62 %
22.05.2023 12:54 19,7 C 23,3 C 19,4 C 85 % 1015,3 hPa 0,0 l/m 2 min 0 min 433 W/m 12,9 km/h (3 Bft) 93,62 %
22.05.2023 12:56 19,9 C 24,4 C 20,6 C 85 % 1015,3 hPa 0,0 l/m 2 min 0 min 899 W/m 9,7 km/h (2 Bft) 95,65 %
22.05.2023 12:58 20,1 C 25,0 C 21,1 C 85 % 1015,2 hPa 0,0 l/m 2 min 0 min 925 W/m 6,4 km/h (2 Bft) 95,74 %
22.05.2023 13:00 20,3 C 25,0 C 21,7 C 85 % 1015,2 hPa 0,0 l/m 2 min 0 min 925 W/m 6,4 km/h (2 Bft) 95,74 %
22.05.2023 13:02 20,6 C 25,6 C 21,7 C 84 % 1015,2 hPa 0,0 l/m 2 min 0 min 907 W/m 12,9 km/h (3 Bft) 93,62 %
22.05.2023 13:04 20,6 C 25,6 C 21,1 C 82 % 1015,2 hPa 0,0 l/m 2 min 0 min 877 W/m 12,9 km/h (3 Bft) 95,92 %
22.05.2023 13:06 20,8 C 26,1 C 21,7 C 84 % 1015,2 hPa 0,0 l/m 2 min 0 min 914 W/m 6,4 km/h (2 Bft) 95,74 %
22.05.2023 13:08 21,1 C 25,6 C 21,1 C 83 % 1015,2 hPa 0,0 l/m 2 min 0 min 932 W/m 12,9 km/h (3 Bft) 95,65 %
22.05.2023 13:10 21,2 C 25,6 C 21,1 C 82 % 1015,2 hPa 0,0 l/m 2 min 0 min 830 W/m 12,9 km/h (3 Bft) 95,74 %
22.05.2023 13:12 21,3 C 26,1 C 20,6 C 81 % 1015,2 hPa 0,0 l/m 2 min 0 min 745 W/m 9,7 km/h (2 Bft) 95,74 %
22.05.2023 13:14 21,4 C 25,6 C 20,6 C 81 % 1015,2 hPa 0,0 l/m 2 min 0 min 826 W/m 12,9 km/h (3 Bft) 93,62 %
22.05.2023 13:16 21,4 C 26,1 C 20,6 C 81 % 1015,2 hPa 0,0 l/m 2 min 0 min 820 W/m 9,7 km/h (2 Bft) 93,62 %
22.05.2023 13:18 21,5 C 26,1 C 21,1 C 80 % 1015,1 hPa 0,0 l/m 2 min 0 min 858 W/m 12,9 km/h (3 Bft) 95,74 %
22.05.2023 13:20 21,6 C 26,1 C 21,7 C 80 % 1015,1 hPa 0,0 l/m 2 min 0 min 867 W/m 12,9 km/h (3 Bft) 95,35 %
22.05.2023 13:22 21,7 C 26,7 C 22,2 C 80 % 1015,1 hPa 0,0 l/m 2 min 0 min 860 W/m 12,9 km/h (3 Bft) 95,65 %
22.05.2023 13:24 21,8 C 27,2 C 22,8 C 80 % 1015,1 hPa 0,0 l/m 2 min 0 min 847 W/m 12,9 km/h (3 Bft) 95,74 %
22.05.2023 13:26 21,9 C 26,7 C 22,8 C 80 % 1015,1 hPa 0,0 l/m 2 min 0 min 848 W/m 6,4 km/h (2 Bft) 95,74 %
22.05.2023 13:28 22,1 C 26,1 C 22,2 C 79 % 1015,0 hPa 0,0 l/m 2 min 0 min 840 W/m 12,9 km/h (3 Bft) 95,74 %
22.05.2023 13:30 22,1 C 26,1 C 21,7 C 79 % 1015,0 hPa 0,0 l/m 2 min 0 min 588 W/m 12,9 km/h (3 Bft) 97,87 %
22.05.2023 13:32 22,2 C 26,1 C 22,2 C 79 % 1015,0 hPa 0,0 l/m 2 min 0 min 712 W/m 12,9 km/h (3 Bft) 97,87 %
22.05.2023 13:34 22,2 C 27,2 C 22,8 C 78 % 1015,0 hPa 0,0 l/m 2 min 0 min 869 W/m 12,9 km/h (3 Bft) 97,87 %
22.05.2023 13:36 22,3 C 27,8 C 23,3 C 78 % 1015,0 hPa 0,0 l/m 2 min 0 min 866 W/m 9,7 km/h (2 Bft) 97,83 %
22.05.2023 13:38 22,4 C 27,2 C 23,3 C 78 % 1014,9 hPa 0,0 l/m 2 min 0 min 857 W/m 9,7 km/h (2 Bft) 97,87 %
22.05.2023 13:40 22,5 C 27,2 C 23,9 C 78 % 1014,9 hPa 0,0 l/m 2 min 0 min 833 W/m 9,7 km/h (2 Bft) 97,87 %
22.05.2023 13:42 22,5 C 27,8 C 23,9 C 77 % 1014,9 hPa 0,0 l/m 2 min 0 min 841 W/m 9,7 km/h (2 Bft) 100,00 %
22.05.2023 13:44 22,7 C 27,2 C 23,9 C 78 % 1014,9 hPa 0,0 l/m 2 min 0 min 870 W/m 6,4 km/h (2 Bft) 100,00 %
22.05.2023 13:46 22,7 C 27,2 C 23,3 C 77 % 1015,0 hPa 0,0 l/m 2 min 0 min 866 W/m 12,9 km/h (3 Bft) 100,00 %
22.05.2023 13:48 22,8 C 27,2 C 23,3 C 77 % 1015,0 hPa 0,0 l/m 2 min 0 min 900 W/m 16,1 km/h (3 Bft) 100,00 %
22.05.2023 13:50 22,8 C 26,7 C 22,8 C 76 % 1014,9 hPa 0,0 l/m 2 min 0 min 858 W/m 16,1 km/h (3 Bft) 100,00 %
22.05.2023 13:52 22,8 C 26,1 C 21,7 C 77 % 1015,0 hPa 0,0 l/m 2 min 0 min 858 W/m 9,7 km/h (2 Bft) 100,00 %
22.05.2023 13:54 22,8 C 26,1 C 21,1 C 76 % 1014,9 hPa 0,0 l/m 2 min 0 min 793 W/m 12,9 km/h (3 Bft) 100,00 %
22.05.2023 13:56 22,8 C 25,6 C 20,6 C 76 % 1014,9 hPa 0,0 l/m 2 min 0 min 501 W/m 9,7 km/h (2 Bft) 100,00 %
22.05.2023 13:58 22,8 C 25,0 C 20,0 C 76 % 1014,9 hPa 0,0 l/m 2 min 0 min 422 W/m 12,9 km/h (3 Bft) 100,00 %
22.05.2023 14:00 22,8 C 26,1 C 20,0 C 77 % 1014,8 hPa 0,0 l/m 2 min 0 min 659 W/m 12,9 km/h (3 Bft) 100,00 %
22.05.2023 14:02 22,8 C 27,2 C 20,0 C 77 % 1014,9 hPa 0,0 l/m 2 min 0 min 840 W/m 12,9 km/h (3 Bft) 100,00 %
22.05.2023 14:04 22,9 C 26,7 C 20,0 C 77 % 1014,8 hPa 0,0 l/m 2 min 0 min 848 W/m 9,7 km/h (2 Bft) 100,00 %
22.05.2023 14:06 23,0 C 26,7 C 20,0 C 77 % 1014,8 hPa 0,0 l/m 2 min 0 min 866 W/m 12,9 km/h (3 Bft) 97,87 %
22.05.2023 14:08 23,1 C 27,2 C 20,0 C 77 % 1014,8 hPa 0,0 l/m 2 min 0 min 869 W/m 9,7 km/h (2 Bft) 100,00 %
22.05.2023 14:10 23,1 C 27,2 C 20,0 C 76 % 1014,8 hPa 0,0 l/m 2 min 0 min 845 W/m 12,9 km/h (3 Bft) 100,00 %
22.05.2023 14:12 23,1 C 27,2 C 19,4 C 76 % 1014,8 hPa 0,0 l/m 2 min 0 min 814 W/m 12,9 km/h (3 Bft) 100,00 %
22.05.2023 14:14 23,1 C 27,2 C 19,4 C 76 % 1014,7 hPa 0,0 l/m 2 min 0 min 805 W/m 12,9 km/h (3 Bft) 100,00 %
22.05.2023 14:16 23,2 C 28,3 C 20,0 C 77 % 1014,7 hPa 0,0 l/m 2 min 0 min 805 W/m 9,7 km/h (2 Bft) 100,00 %
22.05.2023 14:18 23,3 C 27,8 C 20,0 C 77 % 1014,7 hPa 0,0 l/m 2 min 0 min 860 W/m 16,1 km/h (3 Bft) 100,00 %
22.05.2023 14:20 23,4 C 27,8 C 19,4 C 76 % 1014,7 hPa 0,0 l/m 2 min 0 min 838 W/m 9,7 km/h (2 Bft) 100,00 %
22.05.2023 14:22 23,5 C 28,3 C 19,4 C 76 % 1014,6 hPa 0,0 l/m 2 min 0 min 822 W/m 12,9 km/h (3 Bft) 100,00 %
22.05.2023 14:24 23,6 C 28,3 C 19,4 C 75 % 1014,6 hPa 0,0 l/m 2 min 0 min 814 W/m 16,1 km/h (3 Bft) 100,00 %
22.05.2023 14:26 23,7 C 28,9 C 20,0 C 75 % 1014,6 hPa 0,0 l/m 2 min 0 min 823 W/m 16,1 km/h (3 Bft) 100,00 %
22.05.2023 14:28 23,8 C 28,9 C 19,4 C 75 % 1014,7 hPa 0,0 l/m 2 min 0 min 825 W/m 9,7 km/h (2 Bft) 100,00 %
22.05.2023 14:30 23,8 C 28,3 C 19,4 C 74 % 1014,7 hPa 0,0 l/m 2 min 0 min 804 W/m 9,7 km/h (2 Bft) 97,87 %
22.05.2023 14:32 23,8 C 28,3 C 19,4 C 74 % 1014,6 hPa 0,0 l/m 2 min 0 min 804 W/m 9,7 km/h (2 Bft) 100,00 %
22.05.2023 14:34 23,9 C 28,3 C 19,4 C 75 % 1014,7 hPa 0,0 l/m 2 min 0 min 816 W/m 12,9 km/h (3 Bft) 100,00 %
22.05.2023 14:36 24,1 C 28,3 C 19,4 C 74 % 1014,7 hPa 0,0 l/m 2 min 0 min 829 W/m 16,1 km/h (3 Bft) 100,00 %
22.05.2023 14:38 24,1 C 28,9 C 19,4 C 74 % 1014,6 hPa 0,0 l/m 2 min 0 min 820 W/m 16,1 km/h (3 Bft) 97,87 %
22.05.2023 14:40 24,2 C 28,9 C 19,4 C 74 % 1014,6 hPa 0,0 l/m 2 min 0 min 830 W/m 12,9 km/h (3 Bft) 97,83 %
22.05.2023 14:42 24,2 C 28,9 C 19,4 C 74 % 1014,6 hPa 0,0 l/m 2 min 0 min 838 W/m 16,1 km/h (3 Bft) 100,00 %
22.05.2023 14:44 24,3 C 29,4 C 20,0 C 74 % 1014,7 hPa 0,0 l/m 2 min 0 min 836 W/m 19,3 km/h (3 Bft) 91,30 %
22.05.2023 14:46 24,4 C 28,9 C 20,0 C 74 % 1014,7 hPa 0,0 l/m 2 min 0 min 840 W/m 16,1 km/h (3 Bft) 97,87 %
22.05.2023 14:48 24,3 C 27,8 C 19,4 C 72 % 1014,7 hPa 0,0 l/m 2 min 0 min 839 W/m 12,9 km/h (3 Bft) 97,87 %
22.05.2023 14:50 24,4 C 28,3 C 19,4 C 73 % 1014,6 hPa 0,0 l/m 2 min 0 min 799 W/m 6,4 km/h (2 Bft) 95,74 %
22.05.2023 14:52 24,4 C 28,3 C 20,0 C 73 % 1014,6 hPa 0,0 l/m 2 min 0 min 761 W/m 12,9 km/h (3 Bft) 95,74 %
22.05.2023 14:54 24,4 C 28,3 C 19,4 C 74 % 1014,5 hPa 0,0 l/m 2 min 0 min 800 W/m 16,1 km/h (3 Bft) 95,74 %
22.05.2023 14:56 24,4 C 27,8 C 19,4 C 72 % 1014,5 hPa 0,0 l/m 2 min 0 min 800 W/m 16,1 km/h (3 Bft) 93,48 %
22.05.2023 14:58 24,3 C 27,8 C 19,4 C 73 % 1014,6 hPa 0,0 l/m 2 min 0 min 770 W/m 9,7 km/h (2 Bft) 91,49 %
22.05.2023 15:00 24,3 C 27,8 C 19,4 C 73 % 1014,5 hPa 0,0 l/m 2 min 0 min 787 W/m 16,1 km/h (3 Bft) 93,62 %
22.05.2023 15:02 24,4 C 28,9 C 19,4 C 73 % 1014,5 hPa 0,0 l/m 2 min 0 min 791 W/m 9,7 km/h (2 Bft) 93,62 %
22.05.2023 15:04 24,4 C 28,3 C 19,4 C 73 % 1014,5 hPa 0,0 l/m 2 min 0 min 757 W/m 6,4 km/h (2 Bft) 95,92 %
22.05.2023 15:06 24,4 C 28,3 C 19,4 C 72 % 1014,5 hPa 0,0 l/m 2 min 0 min 764 W/m 9,7 km/h (2 Bft) 95,74 %
22.05.2023 15:08 24,4 C 27,8 C 19,4 C 73 % 1014,5 hPa 0,0 l/m 2 min 0 min 793 W/m 12,9 km/h (3 Bft) 93,48 %
22.05.2023 15:10 24,4 C 27,8 C 20,0 C 73 % 1014,5 hPa 0,0 l/m 2 min 0 min 502 W/m 6,4 km/h (2 Bft) 93,62 %
22.05.2023 15:12 24,4 C 27,8 C 20,0 C 73 % 1014,5 hPa 0,0 l/m 2 min 0 min 779 W/m 6,4 km/h (2 Bft) 95,74 %
22.05.2023 15:14 24,5 C 28,3 C 20,0 C 73 % 1014,5 hPa 0,0 l/m 2 min 0 min 802 W/m 12,9 km/h (3 Bft) 91,49 %
22.05.2023 15:16 24,5 C 27,8 C 19,4 C 72 % 1014,5 hPa 0,0 l/m 2 min 0 min 800 W/m 16,1 km/h (3 Bft) 93,62 %
22.05.2023 15:18 24,6 C 27,8 C 19,4 C 73 % 1014,6 hPa 0,0 l/m 2 min 0 min 813 W/m 9,7 km/h (2 Bft) 95,74 %
22.05.2023 15:20 24,7 C 27,8 C 20,0 C 73 % 1014,5 hPa 0,0 l/m 2 min 0 min 802 W/m 6,4 km/h (2 Bft) 93,62 %
22.05.2023 15:22 24,7 C 27,2 C 20,0 C 73 % 1014,4 hPa 0,0 l/m 2 min 0 min 741 W/m 19,3 km/h (3 Bft) 95,65 %
22.05.2023 15:24 24,7 C 27,2 C 19,4 C 72 % 1014,5 hPa 0,0 l/m 2 min 0 min 605 W/m 12,9 km/h (3 Bft) 95,74 %
22.05.2023 15:26 24,8 C 27,8 C 19,4 C 72 % 1014,5 hPa 0,0 l/m 2 min 0 min 789 W/m 9,7 km/h (2 Bft) 93,62 %
22.05.2023 15:28 24,8 C 27,8 C 19,4 C 72 % 1014,5 hPa 0,0 l/m 2 min 0 min 745 W/m 12,9 km/h (3 Bft) 97,87 %
22.05.2023 15:30 24,8 C 28,3 C 19,4 C 73 % 1014,4 hPa 0,0 l/m 2 min 0 min 737 W/m 6,4 km/h (2 Bft) 97,87 %
22.05.2023 15:32 24,8 C 27,8 C 19,4 C 72 % 1014,5 hPa 0,0 l/m 2 min 0 min 687 W/m 12,9 km/h (3 Bft) 97,87 %
22.05.2023 15:34 24,8 C 27,8 C 19,4 C 71 % 1014,4 hPa 0,0 l/m 2 min 0 min 717 W/m 16,1 km/h (3 Bft) 100,00 %
22.05.2023 15:36 24,8 C 28,3 C 19,4 C 72 % 1014,4 hPa 0,0 l/m 2 min 0 min 733 W/m 9,7 km/h (2 Bft) 100,00 %
22.05.2023 15:38 24,8 C 27,8 C 20,0 C 72 % 1014,4 hPa 0,0 l/m 2 min 0 min 760 W/m 12,9 km/h (3 Bft) 97,87 %
22.05.2023 15:40 24,9 C 28,3 C 20,0 C 72 % 1014,4 hPa 0,0 l/m 2 min 0 min 768 W/m 12,9 km/h (3 Bft) 100,00 %
22.05.2023 15:42 24,9 C 28,3 C 20,0 C 72 % 1014,3 hPa 0,0 l/m 2 min 0 min 770 W/m 16,1 km/h (3 Bft) 100,00 %
22.05.2023 15:44 24,9 C 27,8 C 20,0 C 72 % 1014,4 hPa 0,0 l/m 2 min 0 min 721 W/m 12,9 km/h (3 Bft) 97,87 %
22.05.2023 15:46 24,9 C 28,3 C 20,0 C 72 % 1014,3 hPa 0,0 l/m 2 min 0 min 708 W/m 6,4 km/h (2 Bft) 100,00 %
22.05.2023 15:48 24,9 C 27,2 C 20,0 C 72 % 1014,3 hPa 0,0 l/m 2 min 0 min 656 W/m 16,1 km/h (3 Bft) 97,83 %
22.05.2023 15:50 24,9 C 27,8 C 20,0 C 72 % 1014,3 hPa 0,0 l/m 2 min 0 min 682 W/m 16,1 km/h (3 Bft) 97,87 %
22.05.2023 15:52 25,0 C 27,8 C 20,0 C 72 % 1014,3 hPa 0,0 l/m 2 min 0 min 722 W/m 12,9 km/h (3 Bft) 100,00 %
22.05.2023 15:54 25,0 C 28,3 C 20,0 C 72 % 1014,3 hPa 0,0 l/m 2 min 0 min 694 W/m 12,9 km/h (3 Bft) 100,00 %
22.05.2023 15:56 25,1 C 27,8 C 20,0 C 71 % 1014,3 hPa 0,0 l/m 2 min 0 min 666 W/m 12,9 km/h (3 Bft) 95,74 %
22.05.2023 15:58 25,0 C 27,8 C 20,0 C 72 % 1014,3 hPa 0,0 l/m 2 min 0 min 693 W/m 16,1 km/h (3 Bft) 97,87 %
22.05.2023 16:00 25,0 C 27,2 C 20,0 C 72 % 1014,3 hPa 0,0 l/m 2 min 0 min 689 W/m 6,4 km/h (2 Bft) 100,00 %
22.05.2023 16:02 25,1 C 27,8 C 20,0 C 72 % 1014,3 hPa 0,0 l/m 2 min 0 min 707 W/m 16,1 km/h (3 Bft) 97,87 %
22.05.2023 16:04 25,1 C 27,2 C 20,0 C 72 % 1014,3 hPa 0,0 l/m 2 min 0 min 710 W/m 16,1 km/h (3 Bft) 95,92 %
22.05.2023 16:06 25,1 C 27,2 C 20,0 C 72 % 1014,4 hPa 0,0 l/m 2 min 0 min 712 W/m 16,1 km/h (3 Bft) 97,87 %
22.05.2023 16:08 25,1 C 27,2 C 20,0 C 71 % 1014,3 hPa 0,0 l/m 2 min 0 min 687 W/m 9,7 km/h (2 Bft) 93,62 %
22.05.2023 16:10 25,1 C 27,2 C 20,0 C 71 % 1014,3 hPa 0,0 l/m 2 min 0 min 726 W/m 12,9 km/h (3 Bft) 97,87 %
22.05.2023 16:12 25,1 C 27,2 C 20,0 C 71 % 1014,4 hPa 0,0 l/m 2 min 0 min 711 W/m 16,1 km/h (3 Bft) 97,87 %
22.05.2023 16:14 24,9 C 26,7 C 20,0 C 71 % 1014,4 hPa 0,0 l/m 2 min 0 min 560 W/m 9,7 km/h (2 Bft) 91,30 %
22.05.2023 16:16 24,9 C 26,7 C 20,0 C 72 % 1014,4 hPa 0,0 l/m 2 min 0 min 564 W/m 6,4 km/h (2 Bft) 97,87 %
22.05.2023 16:18 24,9 C 26,1 C 20,0 C 72 % 1014,4 hPa 0,0 l/m 2 min 0 min 642 W/m 16,1 km/h (3 Bft) 97,87 %
22.05.2023 16:20 24,9 C 26,7 C 20,0 C 71 % 1014,5 hPa 0,0 l/m 2 min 0 min 649 W/m 12,9 km/h (3 Bft) 93,62 %
22.05.2023 16:22 24,9 C 27,2 C 20,0 C 72 % 1014,5 hPa 0,0 l/m 2 min 0 min 647 W/m 16,1 km/h (3 Bft) 97,87 %
22.05.2023 16:24 24,9 C 27,2 C 20,0 C 71 % 1014,4 hPa 0,0 l/m 2 min 0 min 647 W/m 12,9 km/h (3 Bft) 95,74 %
22.05.2023 16:26 24,9 C 27,2 C 20,0 C 71 % 1014,4 hPa 0,0 l/m 2 min 0 min 643 W/m 16,1 km/h (3 Bft) 95,74 %
22.05.2023 16:28 24,9 C 26,7 C 20,0 C 71 % 1014,4 hPa 0,0 l/m 2 min 0 min 561 W/m 9,7 km/h (2 Bft) 97,83 %
22.05.2023 16:30 24,9 C 26,7 C 20,0 C 72 % 1014,5 hPa 0,0 l/m 2 min 0 min 464 W/m 22,5 km/h (4 Bft) 97,87 %
22.05.2023 16:32 24,8 C 26,7 C 20,0 C 72 % 1014,4 hPa 0,0 l/m 2 min 0 min 592 W/m 12,9 km/h (3 Bft) 95,74 %
22.05.2023 16:34 24,8 C 26,7 C 20,0 C 72 % 1014,5 hPa 0,0 l/m 2 min 0 min 411 W/m 16,1 km/h (3 Bft) 95,74 %
22.05.2023 16:36 24,8 C 26,1 C 20,0 C 72 % 1014,4 hPa 0,0 l/m 2 min 0 min 460 W/m 16,1 km/h (3 Bft) 95,74 %
22.05.2023 16:38 24,7 C 25,6 C 20,0 C 71 % 1014,4 hPa 0,0 l/m 2 min 0 min 366 W/m 16,1 km/h (3 Bft) 97,87 %
22.05.2023 16:40 24,7 C 26,7 C 20,0 C 72 % 1014,4 hPa 0,0 l/m 2 min 0 min 564 W/m 6,4 km/h (2 Bft) 97,87 %
22.05.2023 16:42 24,8 C 26,7 C 20,0 C 73 % 1014,4 hPa 0,0 l/m 2 min 0 min 609 W/m 12,9 km/h (3 Bft) 97,83 %
22.05.2023 16:44 24,8 C 27,2 C 20,0 C 72 % 1014,4 hPa 0,0 l/m 2 min 0 min 597 W/m 9,7 km/h (2 Bft) 97,87 %
22.05.2023 16:46 24,8 C 27,2 C 20,0 C 72 % 1014,3 hPa 0,0 l/m 2 min 0 min 599 W/m 9,7 km/h (2 Bft) 97,87 %
22.05.2023 16:48 24,9 C 27,2 C 20,0 C 72 % 1014,3 hPa 0,0 l/m 2 min 0 min 551 W/m 6,4 km/h (2 Bft) 97,87 %
22.05.2023 16:50 24,9 C 26,7 C 20,0 C 72 % 1014,3 hPa 0,0 l/m 2 min 0 min 405 W/m 12,9 km/h (3 Bft) 97,87 %
22.05.2023 16:52 24,9 C 26,7 C 20,0 C 72 % 1014,3 hPa 0,0 l/m 2 min 0 min 504 W/m 9,7 km/h (2 Bft) 95,74 %
22.05.2023 16:54 24,9 C 26,7 C 20,0 C 72 % 1014,2 hPa 0,0 l/m 2 min 0 min 600 W/m 12,9 km/h (3 Bft) 97,83 %
22.05.2023 16:56 24,9 C 26,7 C 20,0 C 72 % 1014,3 hPa 0,0 l/m 2 min 0 min 620 W/m 19,3 km/h (3 Bft) 97,87 %
22.05.2023 16:58 24,8 C 27,2 C 20,0 C 72 % 1014,3 hPa 0,0 l/m 2 min 0 min 592 W/m 19,3 km/h (3 Bft) 97,87 %
22.05.2023 17:00 24,8 C 27,2 C 20,0 C 72 % 1014,3 hPa 0,0 l/m 2 min 0 min 583 W/m 19,3 km/h (3 Bft) 97,87 %
22.05.2023 17:02 24,7 C 27,2 C 20,0 C 72 % 1014,3 hPa 0,0 l/m 2 min 0 min 545 W/m 12,9 km/h (3 Bft) 97,87 %
22.05.2023 17:04 24,8 C 27,2 C 20,6 C 72 % 1014,2 hPa 0,0 l/m 2 min 0 min 505 W/m 9,7 km/h (2 Bft) 97,96 %
22.05.2023 17:06 24,8 C 26,7 C 20,6 C 72 % 1014,2 hPa 0,0 l/m 2 min 0 min 513 W/m 19,3 km/h (3 Bft) 97,83 %
22.05.2023 17:08 24,8 C 26,7 C 20,0 C 71 % 1014,2 hPa 0,0 l/m 2 min 0 min 462 W/m 12,9 km/h (3 Bft) 97,87 %
22.05.2023 17:10 24,7 C 26,7 C 20,0 C 71 % 1014,2 hPa 0,0 l/m 2 min 0 min 454 W/m 16,1 km/h (3 Bft) 100,00 %
22.05.2023 17:12 24,7 C 26,1 C 20,6 C 72 % 1014,2 hPa 0,0 l/m 2 min 0 min 500 W/m 19,3 km/h (3 Bft) 95,74 %
22.05.2023 17:14 24,7 C 26,7 C 20,0 C 71 % 1014,2 hPa 0,0 l/m 2 min 0 min 529 W/m 12,9 km/h (3 Bft) 97,87 %
22.05.2023 17:16 24,7 C 26,7 C 20,0 C 72 % 1014,2 hPa 0,0 l/m 2 min 0 min 523 W/m 12,9 km/h (3 Bft) 97,87 %
22.05.2023 17:18 24,7 C 26,7 C 20,0 C 71 % 1014,1 hPa 0,0 l/m 2 min 0 min 518 W/m 16,1 km/h (3 Bft) 95,74 %
22.05.2023 17:20 24,7 C 26,7 C 20,0 C 71 % 1014,1 hPa 0,0 l/m 2 min 0 min 515 W/m 16,1 km/h (3 Bft) 95,65 %
22.05.2023 17:22 24,7 C 26,7 C 20,0 C 72 % 1014,0 hPa 0,0 l/m 2 min 0 min 517 W/m 16,1 km/h (3 Bft) 95,74 %
22.05.2023 17:24 24,7 C 27,2 C 20,0 C 72 % 1014,1 hPa 0,0 l/m 2 min 0 min 503 W/m 9,7 km/h (2 Bft) 97,87 %
22.05.2023 17:26 24,8 C 27,2 C 20,0 C 71 % 1014,0 hPa 0,0 l/m 2 min 0 min 468 W/m 12,9 km/h (3 Bft) 100,00 %
22.05.2023 17:28 24,8 C 26,1 C 20,0 C 71 % 1014,1 hPa 0,0 l/m 2 min 0 min 337 W/m 16,1 km/h (3 Bft) 97,87 %
22.05.2023 17:30 24,7 C 26,1 C 20,0 C 71 % 1014,0 hPa 0,0 l/m 2 min 0 min 373 W/m 16,1 km/h (3 Bft) 93,62 %
22.05.2023 17:32 24,7 C 25,6 C 20,0 C 71 % 1013,9 hPa 0,0 l/m 2 min 0 min 455 W/m 16,1 km/h (3 Bft) 97,83 %
22.05.2023 17:34 24,7 C 26,1 C 20,0 C 71 % 1014,0 hPa 0,0 l/m 2 min 0 min 470 W/m 12,9 km/h (3 Bft) 97,87 %
22.05.2023 17:36 24,7 C 26,1 C 20,0 C 71 % 1013,9 hPa 0,0 l/m 2 min 0 min 463 W/m 12,9 km/h (3 Bft) 100,00 %
22.05.2023 17:38 24,6 C 26,1 C 20,0 C 71 % 1013,9 hPa 0,0 l/m 2 min 0 min 449 W/m 12,9 km/h (3 Bft) 97,87 %
22.05.2023 17:40 24,7 C 26,1 C 20,0 C 72 % 1013,9 hPa 0,0 l/m 2 min 0 min 281 W/m 12,9 km/h (3 Bft) 97,87 %
22.05.2023 17:42 24,6 C 26,1 C 20,0 C 71 % 1013,9 hPa 0,0 l/m 2 min 0 min 409 W/m 19,3 km/h (3 Bft) 95,74 %
22.05.2023 17:44 24,6 C 26,1 C 20,0 C 72 % 1013,9 hPa 0,0 l/m 2 min 0 min 337 W/m 12,9 km/h (3 Bft) 97,87 %
22.05.2023 17:46 24,6 C 26,1 C 20,0 C 72 % 1013,9 hPa 0,0 l/m 2 min 0 min 371 W/m 12,9 km/h (3 Bft) 95,65 %
22.05.2023 17:48 24,7 C 26,1 C 20,0 C 71 % 1014,0 hPa 0,0 l/m 2 min 0 min 422 W/m 16,1 km/h (3 Bft) 95,74 %
22.05.2023 17:50 24,7 C 25,6 C 20,0 C 72 % 1014,0 hPa 0,0 l/m 2 min 0 min 348 W/m 16,1 km/h (3 Bft) 97,87 %
22.05.2023 17:52 24,6 C 25,6 C 20,0 C 71 % 1013,9 hPa 0,0 l/m 2 min 0 min 342 W/m 19,3 km/h (3 Bft) 97,87 %
22.05.2023 17:54 24,6 C 25,6 C 20,0 C 71 % 1013,9 hPa 0,0 l/m 2 min 0 min 302 W/m 19,3 km/h (3 Bft) 97,87 %
22.05.2023 17:56 24,6 C 25,6 C 20,0 C 71 % 1014,0 hPa 0,0 l/m 2 min 0 min 382 W/m 19,3 km/h (3 Bft) 97,87 %
22.05.2023 17:58 24,5 C 26,1 C 20,0 C 71 % 1013,9 hPa 0,0 l/m 2 min 0 min 403 W/m 12,9 km/h (3 Bft) 95,74 %
22.05.2023 18:00 24,4 C 25,6 C 20,0 C 71 % 1013,9 hPa 0,0 l/m 2 min 0 min 378 W/m 16,1 km/h (3 Bft) 97,83 %
22.05.2023 18:02 24,4 C 25,6 C 20,0 C 71 % 1013,9 hPa 0,0 l/m 2 min 0 min 358 W/m 16,1 km/h (3 Bft) 97,87 %
22.05.2023 18:04 24,4 C 25,6 C 20,0 C 71 % 1013,9 hPa 0,0 l/m 2 min 0 min 328 W/m 16,1 km/h (3 Bft) 97,30 %
22.05.2023 18:07 24,3 C 26,1 C 20,0 C 72 % 1013,9 hPa 0,0 l/m 3 min 0 min 378 W/m 12,9 km/h (3 Bft) 97,30 %
22.05.2023 18:08 24,4 C 26,1 C 20,0 C 72 % 1013,9 hPa 0,0 l/m 1 min 0 min 338 W/m 12,9 km/h (3 Bft) 100,00 %
22.05.2023 18:12 24,4 C 26,7 C 20,0 C 72 % 1013,9 hPa 0,0 l/m 4 min 0 min 372 W/m 9,7 km/h (2 Bft) 100,00 %
22.05.2023 18:14 24,4 C 26,1 C 20,0 C 72 % 1013,9 hPa 0,0 l/m 2 min 0 min 349 W/m 16,1 km/h (3 Bft) 100,00 %
22.05.2023 18:16 24,4 C 26,1 C 20,0 C 71 % 1013,9 hPa 0,0 l/m 2 min 0 min 341 W/m 16,1 km/h (3 Bft) 97,83 %
22.05.2023 18:18 24,4 C 25,0 C 20,0 C 71 % 1013,8 hPa 0,0 l/m 2 min 0 min 306 W/m 16,1 km/h (3 Bft) 100,00 %
22.05.2023 18:20 24,3 C 25,0 C 20,0 C 71 % 1013,9 hPa 0,0 l/m 2 min 0 min 335 W/m 25,7 km/h (4 Bft) 100,00 %
22.05.2023 18:22 24,2 C 25,6 C 19,4 C 72 % 1013,8 hPa 0,0 l/m 2 min 0 min 335 W/m 12,9 km/h (3 Bft) 100,00 %
22.05.2023 18:24 24,2 C 25,0 C 20,0 C 72 % 1014,0 hPa 0,0 l/m 2 min 0 min 320 W/m 16,1 km/h (3 Bft) 100,00 %
22.05.2023 18:26 24,2 C 25,0 C 19,4 C 72 % 1014,0 hPa 0,0 l/m 2 min 0 min 312 W/m 12,9 km/h (3 Bft) 100,00 %
22.05.2023 18:28 24,2 C 25,0 C 19,4 C 72 % 1014,0 hPa 0,0 l/m 2 min 0 min 312 W/m 12,9 km/h (3 Bft) 100,00 %
22.05.2023 18:30 24,2 C 25,0 C 19,4 C 72 % 1014,0 hPa 0,0 l/m 2 min 0 min 279 W/m 12,9 km/h (3 Bft) 100,00 %
22.05.2023 18:32 24,1 C 24,4 C 19,4 C 72 % 1014,1 hPa 0,0 l/m 2 min 0 min 265 W/m 16,1 km/h (3 Bft) 100,00 %
22.05.2023 18:34 24,1 C 23,9 C 19,4 C 72 % 1014,1 hPa 0,0 l/m 0 min 0 min 156 W/m 12,9 km/h (3 Bft) 100,00 %
22.05.2023 18:36 24,0 C 23,3 C 18,9 C 72 % 1014,1 hPa 0,0 l/m 0 min 0 min 138 W/m 16,1 km/h (3 Bft) 97,87 %
22.05.2023 18:38 23,9 C 23,3 C 18,9 C 72 % 1014,1 hPa 0,0 l/m 0 min 0 min 136 W/m 16,1 km/h (3 Bft) 100,00 %
22.05.2023 18:40 23,8 C 23,3 C 18,9 C 72 % 1014,2 hPa 0,0 l/m 0 min 0 min 138 W/m 16,1 km/h (3 Bft) 97,87 %
22.05.2023 18:42 23,8 C 23,3 C 18,9 C 72 % 1014,1 hPa 0,0 l/m 0 min 0 min 150 W/m 19,3 km/h (3 Bft) 100,00 %
22.05.2023 18:44 23,8 C 23,3 C 18,9 C 73 % 1014,1 hPa 0,0 l/m 0 min 0 min 169 W/m 12,9 km/h (3 Bft) 100,00 %
22.05.2023 18:46 23,7 C 23,3 C 18,9 C 72 % 1014,1 hPa 0,0 l/m 0 min 0 min 164 W/m 19,3 km/h (3 Bft) 100,00 %
22.05.2023 18:48 23,7 C 23,3 C 18,9 C 73 % 1014,1 hPa 0,0 l/m 0 min 0 min 99 W/m 16,1 km/h (3 Bft) 97,87 %
22.05.2023 18:50 23,6 C 22,8 C 18,9 C 73 % 1014,3 hPa 0,0 l/m 0 min 0 min 59 W/m 22,5 km/h (4 Bft) 97,87 %
22.05.2023 18:52 23,6 C 22,2 C 18,3 C 72 % 1014,4 hPa 0,0 l/m 0 min 0 min 33 W/m 32,2 km/h (5 Bft) 95,74 %
22.05.2023 18:54 23,3 C 21,7 C 18,3 C 72 % 1014,4 hPa 0,0 l/m 0 min 0 min 36 W/m 25,7 km/h (4 Bft) 97,87 %
22.05.2023 18:56 23,1 C 21,7 C 17,8 C 72 % 1014,4 hPa 0,0 l/m 0 min 0 min 44 W/m 25,7 km/h (4 Bft) 95,65 %
22.05.2023 18:58 22,9 C 21,7 C 17,8 C 72 % 1014,5 hPa 0,0 l/m 0 min 0 min 55 W/m 22,5 km/h (4 Bft) 97,87 %
22.05.2023 19:00 22,7 C 21,1 C 17,8 C 73 % 1014,4 hPa 0,0 l/m 0 min 0 min 65 W/m 22,5 km/h (4 Bft) 97,87 %
22.05.2023 19:02 22,6 C 21,1 C 17,8 C 74 % 1014,5 hPa 0,0 l/m 0 min 0 min 78 W/m 19,3 km/h (3 Bft) 95,74 %
22.05.2023 19:04 22,4 C 21,1 C 17,8 C 74 % 1014,4 hPa 0,0 l/m 0 min 0 min 86 W/m 12,9 km/h (3 Bft) 97,87 %
22.05.2023 19:06 22,2 C 21,1 C 17,2 C 75 % 1014,5 hPa 0,0 l/m 0 min 0 min 82 W/m 29,0 km/h (5 Bft) 97,92 %
22.05.2023 19:08 22,1 C 21,1 C 17,2 C 75 % 1014,5 hPa 0,0 l/m 0 min 0 min 67 W/m 38,6 km/h (5 Bft) 97,87 %
22.05.2023 19:10 22,0 C 21,1 C 17,2 C 76 % 1014,5 hPa 0,0 l/m 0 min 0 min 59 W/m 19,3 km/h (3 Bft) 97,83 %
22.05.2023 19:12 21,9 C 20,6 C 17,2 C 77 % 1014,6 hPa 0,0 l/m 0 min 0 min 51 W/m 32,2 km/h (5 Bft) 95,74 %
22.05.2023 19:14 21,8 C 20,6 C 17,2 C 77 % 1014,5 hPa 0,0 l/m 0 min 0 min 46 W/m 25,7 km/h (4 Bft) 95,74 %
22.05.2023 19:16 21,7 C 20,6 C 17,2 C 77 % 1014,6 hPa 0,0 l/m 0 min 0 min 45 W/m 25,7 km/h (4 Bft) 93,62 %
22.05.2023 19:18 21,6 C 20,6 C 16,7 C 78 % 1014,5 hPa 0,0 l/m 0 min 0 min 45 W/m 22,5 km/h (4 Bft) 91,67 %
22.05.2023 19:20 21,4 C 20,0 C 16,7 C 78 % 1014,6 hPa 0,0 l/m 0 min 0 min 48 W/m 16,1 km/h (3 Bft) 95,74 %
22.05.2023 19:22 21,4 C 20,0 C 16,7 C 77 % 1014,6 hPa 0,0 l/m 0 min 0 min 53 W/m 29,0 km/h (5 Bft) 97,14 %
22.05.2023 19:24 21,3 C 20,0 C 16,7 C 77 % 1014,5 hPa 0,0 l/m 0 min 0 min 57 W/m 25,7 km/h (4 Bft) 91,53 %
22.05.2023 19:26 21,2 C 20,0 C 16,7 C 77 % 1014,6 hPa 0,0 l/m 0 min 0 min 61 W/m 19,3 km/h (3 Bft) 95,65 %
22.05.2023 19:28 21,1 C 20,0 C 16,7 C 77 % 1014,7 hPa 0,0 l/m 0 min 0 min 56 W/m 22,5 km/h (4 Bft) 97,14 %
22.05.2023 19:30 21,1 C 20,0 C 16,1 C 78 % 1014,7 hPa 0,0 l/m 0 min 0 min 47 W/m 12,9 km/h (3 Bft) 96,61 %
22.05.2023 19:32 21,0 C 20,0 C 16,1 C 78 % 1014,8 hPa 0,0 l/m 0 min 0 min 41 W/m 19,3 km/h (3 Bft) 97,14 %
22.05.2023 19:34 20,9 C 20,0 C 16,1 C 78 % 1014,8 hPa 0,0 l/m 0 min 0 min 39 W/m 16,1 km/h (3 Bft) 97,87 %
22.05.2023 19:36 20,8 C 19,4 C 16,1 C 79 % 1014,8 hPa 0,0 l/m 0 min 0 min 36 W/m 19,3 km/h (3 Bft) 95,74 %
22.05.2023 19:38 20,7 C 19,4 C 16,1 C 79 % 1014,8 hPa 0,0 l/m 0 min 0 min 35 W/m 9,7 km/h (2 Bft) 97,87 %
22.05.2023 19:40 20,6 C 19,4 C 16,1 C 79 % 1014,8 hPa 0,0 l/m 0 min 0 min 39 W/m 12,9 km/h (3 Bft) 97,87 %
22.05.2023 19:42 20,5 C 19,4 C 15,6 C 79 % 1014,7 hPa 0,0 l/m 0 min 0 min 46 W/m 12,9 km/h (3 Bft) 95,74 %
22.05.2023 19:44 20,4 C 19,4 C 15,6 C 80 % 1014,8 hPa 0,0 l/m 0 min 0 min 52 W/m 22,5 km/h (4 Bft) 97,83 %
22.05.2023 19:46 20,4 C 19,4 C 15,6 C 80 % 1014,8 hPa 0,0 l/m 0 min 0 min 59 W/m 16,1 km/h (3 Bft) 91,49 %
22.05.2023 19:48 20,3 C 19,4 C 15,6 C 80 % 1014,8 hPa 0,0 l/m 0 min 0 min 60 W/m 12,9 km/h (3 Bft) 95,74 %
22.05.2023 19:50 20,3 C 19,4 C 15,6 C 81 % 1014,8 hPa 0,0 l/m 0 min 0 min 60 W/m 6,4 km/h (2 Bft) 100,00 %
22.05.2023 19:52 20,2 C 19,4 C 15,6 C 81 % 1014,8 hPa 0,0 l/m 0 min 0 min 60 W/m 19,3 km/h (3 Bft) 95,74 %
22.05.2023 19:54 20,2 C 19,4 C 15,6 C 82 % 1014,8 hPa 0,0 l/m 0 min 0 min 62 W/m 12,9 km/h (3 Bft) 91,49 %
22.05.2023 19:56 20,2 C 19,4 C 15,6 C 82 % 1014,9 hPa 0,0 l/m 0 min 0 min 65 W/m 9,7 km/h (2 Bft) 95,74 %
22.05.2023 19:58 20,2 C 19,4 C 15,6 C 82 % 1014,9 hPa 0,0 l/m 0 min 0 min 73 W/m 9,7 km/h (2 Bft) 95,65 %
22.05.2023 20:00 20,2 C 19,4 C 16,1 C 82 % 1014,9 hPa 0,0 l/m 0 min 0 min 81 W/m 6,4 km/h (2 Bft) 93,62 %
22.05.2023 20:02 20,2 C 19,4 C 16,1 C 83 % 1015,0 hPa 0,0 l/m 0 min 0 min 89 W/m 6,4 km/h (2 Bft) 97,87 %
22.05.2023 20:04 20,2 C 19,4 C 16,1 C 83 % 1015,0 hPa 0,0 l/m 2 min 0 min 93 W/m 6,4 km/h (2 Bft) 97,87 %
22.05.2023 20:06 20,2 C 20,0 C 16,1 C 83 % 1015,1 hPa 0,0 l/m 2 min 0 min 94 W/m 3,2 km/h (1 Bft) 95,00 %
22.05.2023 20:08 20,3 C 20,0 C 16,1 C 83 % 1015,1 hPa 0,0 l/m 2 min 0 min 90 W/m 3,2 km/h (1 Bft) 94,29 %
22.05.2023 20:10 20,3 C 20,0 C 16,1 C 84 % 1015,1 hPa 0,0 l/m 0 min 0 min 81 W/m 6,4 km/h (2 Bft) 97,87 %
22.05.2023 20:12 20,3 C 20,0 C 16,1 C 84 % 1015,2 hPa 0,0 l/m 0 min 0 min 74 W/m 3,2 km/h (1 Bft) 95,65 %
22.05.2023 20:14 20,3 C 20,0 C 16,1 C 84 % 1015,2 hPa 0,0 l/m 0 min 0 min 70 W/m 9,7 km/h (2 Bft) 97,87 %
22.05.2023 20:16 20,3 C 20,0 C 16,1 C 84 % 1015,2 hPa 0,0 l/m 0 min 0 min 67 W/m 6,4 km/h (2 Bft) 97,87 %
22.05.2023 20:18 20,3 C 20,0 C 16,1 C 84 % 1015,2 hPa 0,0 l/m 0 min 0 min 64 W/m 6,4 km/h (2 Bft) 95,74 %
22.05.2023 20:20 20,3 C 19,4 C 16,1 C 84 % 1015,2 hPa 0,0 l/m 0 min 0 min 61 W/m 0,0 km/h (0 Bft) 95,74 %
22.05.2023 20:22 20,4 C 19,4 C 16,1 C 84 % 1015,2 hPa 0,0 l/m 0 min 0 min 56 W/m 6,4 km/h (2 Bft) 97,87 %
22.05.2023 20:24 20,4 C 20,0 C 16,1 C 85 % 1015,2 hPa 0,0 l/m 0 min 0 min 54 W/m 3,2 km/h (1 Bft) 95,74 %
22.05.2023 20:26 20,4 C 20,0 C 16,1 C 85 % 1015,2 hPa 0,0 l/m 0 min 0 min 53 W/m 6,4 km/h (2 Bft) 95,65 %
22.05.2023 20:28 20,4 C 20,0 C 16,1 C 85 % 1015,2 hPa 0,0 l/m 0 min 0 min 53 W/m 9,7 km/h (2 Bft) 95,74 %
22.05.2023 20:30 20,4 C 19,4 C 16,1 C 85 % 1015,2 hPa 0,0 l/m 0 min 0 min 51 W/m 6,4 km/h (2 Bft) 95,74 %
22.05.2023 20:32 20,4 C 19,4 C 16,1 C 85 % 1015,2 hPa 0,0 l/m 0 min 0 min 49 W/m 3,2 km/h (1 Bft) 97,87 %
22.05.2023 20:34 20,4 C 19,4 C 16,1 C 85 % 1015,1 hPa 0,0 l/m 0 min 0 min 46 W/m 6,4 km/h (2 Bft) 95,74 %
22.05.2023 20:36 20,4 C 19,4 C 16,1 C 85 % 1015,1 hPa 0,0 l/m 0 min 0 min 47 W/m 3,2 km/h (1 Bft) 95,74 %
22.05.2023 20:38 20,4 C 19,4 C 16,1 C 85 % 1015,2 hPa 0,0 l/m 0 min 0 min 47 W/m 3,2 km/h (1 Bft) 97,87 %
22.05.2023 20:40 20,4 C 19,4 C 16,1 C 85 % 1015,2 hPa 0,0 l/m 0 min 0 min 46 W/m 0,0 km/h (0 Bft) 97,83 %
22.05.2023 20:42 20,4 C 19,4 C 16,1 C 85 % 1015,2 hPa 0,0 l/m 0 min 0 min 41 W/m 6,4 km/h (2 Bft) 93,62 %
22.05.2023 20:44 20,4 C 19,4 C 16,1 C 85 % 1015,2 hPa 0,0 l/m 0 min 0 min 38 W/m 6,4 km/h (2 Bft) 97,87 %
22.05.2023 20:46 20,4 C 19,4 C 16,1 C 85 % 1015,2 hPa 0,0 l/m 0 min 0 min 33 W/m 3,2 km/h (1 Bft) 97,87 %
22.05.2023 20:48 20,4 C 19,4 C 16,1 C 85 % 1015,2 hPa 0,0 l/m 0 min 0 min 30 W/m 3,2 km/h (1 Bft) 95,74 %
22.05.2023 20:50 20,4 C 19,4 C 16,1 C 85 % 1015,3 hPa 0,0 l/m 0 min 0 min 28 W/m 3,2 km/h (1 Bft) 95,74 %
22.05.2023 20:52 20,4 C 19,4 C 16,1 C 85 % 1015,3 hPa 0,0 l/m 0 min 0 min 25 W/m 3,2 km/h (1 Bft) 97,87 %
22.05.2023 20:54 20,4 C 19,4 C 16,1 C 86 % 1015,3 hPa 0,0 l/m 0 min 0 min 25 W/m 3,2 km/h (1 Bft) 95,74 %
22.05.2023 20:56 20,5 C 19,4 C 16,1 C 86 % 1015,3 hPa 0,0 l/m 0 min 0 min 22 W/m 3,2 km/h (1 Bft) 95,74 %
22.05.2023 20:58 20,4 C 19,4 C 16,1 C 86 % 1015,4 hPa 0,0 l/m 0 min 0 min 21 W/m 3,2 km/h (1 Bft) 97,87 %
22.05.2023 21:00 20,4 C 19,4 C 15,6 C 86 % 1015,4 hPa 0,0 l/m 0 min 0 min 23 W/m 3,2 km/h (1 Bft) 93,62 %
22.05.2023 21:02 20,4 C 19,4 C 15,6 C 86 % 1015,4 hPa 0,0 l/m 0 min 0 min 21 W/m 9,7 km/h (2 Bft) 97,87 %
22.05.2023 21:04 20,4 C 19,4 C 15,6 C 86 % 1015,5 hPa 0,0 l/m 2 min 0 min 20 W/m 9,7 km/h (2 Bft) 95,74 %
22.05.2023 21:06 20,4 C 19,4 C 15,6 C 86 % 1015,6 hPa 0,0 l/m 0 min 0 min 19 W/m 6,4 km/h (2 Bft) 93,10 %
22.05.2023 21:08 20,4 C 19,4 C 15,6 C 86 % 1015,6 hPa 0,0 l/m 0 min 0 min 19 W/m 6,4 km/h (2 Bft) 94,44 %
22.05.2023 21:10 20,4 C 18,9 C 15,6 C 86 % 1015,6 hPa 0,0 l/m 0 min 0 min 18 W/m 6,4 km/h (2 Bft) 97,83 %
22.05.2023 21:12 20,3 C 18,9 C 15,6 C 86 % 1015,6 hPa 0,0 l/m 0 min 0 min 16 W/m 3,2 km/h (1 Bft) 95,74 %
22.05.2023 21:14 20,3 C 19,4 C 15,6 C 86 % 1015,7 hPa 0,0 l/m 0 min 0 min 14 W/m 19,3 km/h (3 Bft) 97,87 %
22.05.2023 21:16 20,3 C 18,9 C 15,6 C 86 % 1015,7 hPa 0,0 l/m 0 min 0 min 12 W/m 9,7 km/h (2 Bft) 97,87 %
22.05.2023 21:18 20,3 C 18,9 C 15,6 C 86 % 1015,7 hPa 0,0 l/m 0 min 0 min 11 W/m 6,4 km/h (2 Bft) 95,74 %
22.05.2023 21:20 20,2 C 18,9 C 15,6 C 86 % 1015,7 hPa 0,0 l/m 0 min 0 min 11 W/m 9,7 km/h (2 Bft) 100,00 %
22.05.2023 21:22 20,2 C 18,9 C 15,6 C 86 % 1015,8 hPa 0,0 l/m 0 min 0 min 9 W/m 6,4 km/h (2 Bft) 97,83 %
22.05.2023 21:24 20,2 C 18,9 C 15,6 C 86 % 1015,8 hPa 0,0 l/m 0 min 0 min 7 W/m 3,2 km/h (1 Bft) 97,87 %
22.05.2023 21:26 20,1 C 18,9 C 15,6 C 86 % 1015,8 hPa 0,0 l/m 0 min 0 min 7 W/m 3,2 km/h (1 Bft) 97,87 %
22.05.2023 21:28 20,1 C 18,9 C 15,6 C 86 % 1015,8 hPa 0,0 l/m 0 min 0 min 5 W/m 6,4 km/h (2 Bft) 97,87 %
22.05.2023 21:30 20,1 C 18,9 C 15,0 C 87 % 1015,9 hPa 0,0 l/m 0 min 0 min 5 W/m 3,2 km/h (1 Bft) 97,87 %
22.05.2023 21:32 20,1 C 18,3 C 15,0 C 87 % 1015,9 hPa 0,0 l/m 0 min 0 min 0 W/m 3,2 km/h (1 Bft) 97,87 %
22.05.2023 21:34 20,0 C 18,3 C 15,0 C 87 % 1015,9 hPa 0,0 l/m 0 min 0 min 0 W/m 9,7 km/h (2 Bft) 100,00 %
22.05.2023 21:36 19,9 C 18,3 C 15,0 C 87 % 1016,0 hPa 0,0 l/m 0 min 0 min 0 W/m 6,4 km/h (2 Bft) 100,00 %
22.05.2023 21:38 19,9 C 18,3 C 15,0 C 87 % 1016,1 hPa 0,0 l/m 0 min 0 min 0 W/m 9,7 km/h (2 Bft) 100,00 %
22.05.2023 21:40 19,9 C 18,3 C 15,0 C 87 % 1016,0 hPa 0,0 l/m 0 min 0 min 0 W/m 0,0 km/h (0 Bft) 100,00 %
22.05.2023 21:42 19,8 C 18,3 C 15,0 C 87 % 1016,1 hPa 0,0 l/m 0 min 0 min 0 W/m 3,2 km/h (1 Bft) 100,00 %
22.05.2023 21:44 19,8 C 18,3 C 15,0 C 87 % 1016,1 hPa 0,0 l/m 0 min 0 min 0 W/m 6,4 km/h (2 Bft) 97,87 %
22.05.2023 21:46 19,7 C 18,3 C 15,0 C 87 % 1016,1 hPa 0,0 l/m 0 min 0 min 0 W/m 6,4 km/h (2 Bft) 97,87 %
22.05.2023 21:48 19,7 C 17,8 C 15,0 C 87 % 1016,1 hPa 0,0 l/m 0 min 0 min 0 W/m 6,4 km/h (2 Bft) 97,83 %
22.05.2023 21:50 19,6 C 17,8 C 14,4 C 87 % 1016,1 hPa 0,0 l/m 0 min 0 min 0 W/m 16,1 km/h (3 Bft) 100,00 %
22.05.2023 21:52 19,4 C 18,3 C 14,4 C 86 % 1016,1 hPa 0,0 l/m 0 min 0 min 0 W/m 12,9 km/h (3 Bft) 100,00 %
22.05.2023 21:54 19,3 C 18,3 C 14,4 C 86 % 1016,2 hPa 0,0 l/m 0 min 0 min 0 W/m 12,9 km/h (3 Bft) 100,00 %
22.05.2023 21:56 19,3 C 17,8 C 14,4 C 86 % 1016,2 hPa 0,0 l/m 0 min 0 min 0 W/m 3,2 km/h (1 Bft) 100,00 %
22.05.2023 21:58 19,2 C 18,3 C 14,4 C 85 % 1016,2 hPa 0,0 l/m 0 min 0 min 0 W/m 9,7 km/h (2 Bft) 97,73 %
22.05.2023 22:00 19,1 C 17,8 C 14,4 C 85 % 1016,3 hPa 0,0 l/m 0 min 0 min 0 W/m 0,0 km/h (0 Bft) 100,00 %
22.05.2023 22:02 19,1 C 17,8 C 14,4 C 84 % 1016,3 hPa 0,0 l/m 0 min 0 min 0 W/m 16,1 km/h (3 Bft) 97,87 %
22.05.2023 22:04 19,0 C 17,8 C 14,4 C 83 % 1016,3 hPa 0,0 l/m 0 min 0 min 0 W/m 3,2 km/h (1 Bft) 100,00 %
22.05.2023 22:06 18,9 C 17,8 C 14,4 C 83 % 1016,4 hPa 0,0 l/m 0 min 0 min 0 W/m 3,2 km/h (1 Bft) 98,31 %
22.05.2023 22:08 18,9 C 17,8 C 14,4 C 82 % 1016,4 hPa 0,0 l/m 0 min 0 min 0 W/m 3,2 km/h (1 Bft) 97,14 %
22.05.2023 22:10 18,8 C 17,8 C 14,4 C 82 % 1016,4 hPa 0,0 l/m 0 min 0 min 0 W/m 6,4 km/h (2 Bft) 97,87 %
22.05.2023 22:12 18,8 C 17,8 C 14,4 C 82 % 1016,4 hPa 0,0 l/m 0 min 0 min 0 W/m 6,4 km/h (2 Bft) 93,62 %
22.05.2023 22:14 18,8 C 17,8 C 14,4 C 81 % 1016,4 hPa 0,0 l/m 0 min 0 min 0 W/m 6,4 km/h (2 Bft) 97,87 %
22.05.2023 22:16 18,8 C 17,8 C 14,4 C 81 % 1016,5 hPa 0,0 l/m 0 min 0 min 0 W/m 9,7 km/h (2 Bft) 95,65 %
22.05.2023 22:18 18,7 C 17,8 C 14,4 C 81 % 1016,5 hPa 0,0 l/m 0 min 0 min 0 W/m 6,4 km/h (2 Bft) 97,87 %
22.05.2023 22:20 18,7 C 17,8 C 14,4 C 81 % 1016,6 hPa 0,0 l/m 0 min 0 min 0 W/m 3,2 km/h (1 Bft) 97,96 %
22.05.2023 22:22 18,7 C 17,8 C 14,4 C 81 % 1016,6 hPa 0,0 l/m 0 min 0 min 0 W/m 0,0 km/h (0 Bft) 97,87 %
22.05.2023 22:24 18,7 C 17,2 C 13,9 C 81 % 1016,6 hPa 0,0 l/m 0 min 0 min 0 W/m 3,2 km/h (1 Bft) 97,87 %
22.05.2023 22:26 18,6 C 17,8 C 13,9 C 80 % 1016,6 hPa 0,0 l/m 0 min 0 min 0 W/m 0,0 km/h (0 Bft) 97,87 %
22.05.2023 22:28 18,6 C 17,8 C 13,9 C 80 % 1016,6 hPa 0,0 l/m 0 min 0 min 0 W/m 6,4 km/h (2 Bft) 97,83 %
22.05.2023 22:30 18,6 C 17,2 C 13,9 C 80 % 1016,6 hPa 0,0 l/m 0 min 0 min 0 W/m 3,2 km/h (1 Bft) 97,87 %
22.05.2023 22:32 18,6 C 17,2 C 13,9 C 80 % 1016,7 hPa 0,0 l/m 0 min 0 min 0 W/m 6,4 km/h (2 Bft) 95,74 %
22.05.2023 22:34 18,6 C 17,2 C 13,9 C 80 % 1016,7 hPa 0,0 l/m 0 min 0 min 0 W/m 6,4 km/h (2 Bft) 95,74 %
22.05.2023 22:36 18,5 C 17,2 C 13,9 C 81 % 1016,7 hPa 0,0 l/m 0 min 0 min 0 W/m 6,4 km/h (2 Bft) 91,49 %
22.05.2023 22:38 18,5 C 17,2 C 13,9 C 80 % 1016,7 hPa 0,0 l/m 0 min 0 min 0 W/m 9,7 km/h (2 Bft) 97,87 %
22.05.2023 22:40 18,4 C 17,2 C 13,9 C 80 % 1016,7 hPa 0,0 l/m 0 min 0 min 0 W/m 3,2 km/h (1 Bft) 93,62 %
22.05.2023 22:42 18,4 C 17,2 C 13,9 C 81 % 1016,7 hPa 0,0 l/m 0 min 0 min 0 W/m 9,7 km/h (2 Bft) 95,74 %
22.05.2023 22:44 18,4 C 17,2 C 13,9 C 81 % 1016,7 hPa 0,0 l/m 0 min 0 min 0 W/m 6,4 km/h (2 Bft) 95,65 %
22.05.2023 22:46 18,4 C 17,2 C 13,9 C 81 % 1016,7 hPa 0,0 l/m 0 min 0 min 0 W/m 3,2 km/h (1 Bft) 95,74 %
22.05.2023 22:48 18,3 C 17,2 C 13,9 C 81 % 1016,8 hPa 0,0 l/m 0 min 0 min 0 W/m 9,7 km/h (2 Bft) 97,62 %
22.05.2023 22:50 18,3 C 17,2 C 13,9 C 81 % 1016,8 hPa 0,0 l/m 0 min 0 min 0 W/m 6,4 km/h (2 Bft) 89,36 %
22.05.2023 22:52 18,3 C 17,2 C 13,9 C 81 % 1016,9 hPa 0,0 l/m 0 min 0 min 0 W/m 6,4 km/h (2 Bft) 97,87 %
22.05.2023 22:54 18,3 C 16,7 C 13,9 C 81 % 1016,9 hPa 0,0 l/m 0 min 0 min 0 W/m 6,4 km/h (2 Bft) 95,74 %
22.05.2023 22:56 18,3 C 16,7 C 13,9 C 82 % 1016,9 hPa 0,0 l/m 0 min 0 min 0 W/m 3,2 km/h (1 Bft) 95,74 %
22.05.2023 22:58 18,2 C 16,7 C 13,3 C 82 % 1016,9 hPa 0,0 l/m 0 min 0 min 0 W/m 6,4 km/h (2 Bft) 93,62 %
22.05.2023 23:00 18,2 C 16,7 C 13,3 C 82 % 1017,0 hPa 0,0 l/m 0 min 0 min 0 W/m 3,2 km/h (1 Bft) 95,74 %
22.05.2023 23:02 18,2 C 16,7 C 13,3 C 82 % 1016,9 hPa 0,0 l/m 0 min 0 min 0 W/m 6,4 km/h (2 Bft) 93,62 %
22.05.2023 23:04 18,2 C 16,7 C 13,3 C 82 % 1016,9 hPa 0,0 l/m 0 min 0 min 0 W/m 3,2 km/h (1 Bft) 95,65 %
22.05.2023 23:06 18,2 C 16,7 C 13,3 C 82 % 1017,0 hPa 0,0 l/m 0 min 0 min 0 W/m 9,7 km/h (2 Bft) 95,00 %
22.05.2023 23:08 18,1 C 16,7 C 13,3 C 82 % 1016,9 hPa 0,0 l/m 0 min 0 min 0 W/m 6,4 km/h (2 Bft) 94,29 %
22.05.2023 23:10 18,1 C 16,7 C 13,3 C 82 % 1016,9 hPa 0,0 l/m 0 min 0 min 0 W/m 3,2 km/h (1 Bft) 97,87 %
22.05.2023 23:12 18,1 C 16,7 C 13,3 C 83 % 1016,9 hPa 0,0 l/m 0 min 0 min 0 W/m 3,2 km/h (1 Bft) 97,87 %
22.05.2023 23:14 18,0 C 16,7 C 13,3 C 83 % 1017,0 hPa 0,0 l/m 0 min 0 min 0 W/m 6,4 km/h (2 Bft) 97,87 %
22.05.2023 23:16 18,0 C 16,7 C 13,3 C 83 % 1016,9 hPa 0,0 l/m 0 min 0 min 0 W/m 9,7 km/h (2 Bft) 97,87 %
22.05.2023 23:18 17,9 C 16,7 C 13,3 C 83 % 1016,9 hPa 0,0 l/m 0 min 0 min 0 W/m 6,4 km/h (2 Bft) 97,83 %
22.05.2023 23:20 17,9 C 16,7 C 13,3 C 83 % 1017,0 hPa 0,0 l/m 0 min 0 min 0 W/m 6,4 km/h (2 Bft) 93,62 %
22.05.2023 23:22 17,8 C 16,1 C 13,3 C 83 % 1017,0 hPa 0,0 l/m 0 min 0 min 0 W/m 3,2 km/h (1 Bft) 97,87 %
22.05.2023 23:24 17,8 C 16,1 C 12,8 C 83 % 1017,0 hPa 0,0 l/m 0 min 0 min 0 W/m 6,4 km/h (2 Bft) 97,87 %
22.05.2023 23:26 17,8 C 16,1 C 12,8 C 83 % 1016,9 hPa 0,0 l/m 0 min 0 min 0 W/m 6,4 km/h (2 Bft) 97,87 %
22.05.2023 23:28 17,8 C 16,1 C 12,8 C 84 % 1016,9 hPa 0,0 l/m 0 min 0 min 0 W/m 3,2 km/h (1 Bft) 97,92 %
22.05.2023 23:30 17,7 C 16,1 C 12,8 C 84 % 1016,9 hPa 0,0 l/m 0 min 0 min 0 W/m 3,2 km/h (1 Bft) 97,83 %
22.05.2023 23:32 17,7 C 16,1 C 12,8 C 84 % 1017,0 hPa 0,0 l/m 0 min 0 min 0 W/m 0,0 km/h (0 Bft) 97,87 %
22.05.2023 23:34 17,7 C 16,1 C 12,8 C 84 % 1017,0 hPa 0,0 l/m 0 min 0 min 0 W/m 3,2 km/h (1 Bft) 97,87 %
22.05.2023 23:36 17,7 C 16,1 C 12,8 C 85 % 1017,0 hPa 0,0 l/m 0 min 0 min 0 W/m 3,2 km/h (1 Bft) 95,74 %
22.05.2023 23:38 17,6 C 15,6 C 12,8 C 85 % 1017,0 hPa 0,0 l/m 0 min 0 min 0 W/m 0,0 km/h (0 Bft) 97,87 %
22.05.2023 23:40 17,6 C 15,6 C 12,8 C 85 % 1017,0 hPa 0,0 l/m 0 min 0 min 0 W/m 0,0 km/h (0 Bft) 97,87 %
22.05.2023 23:42 17,5 C 15,6 C 12,8 C 85 % 1017,0 hPa 0,0 l/m 0 min 0 min 0 W/m 0,0 km/h (0 Bft) 97,87 %
22.05.2023 23:44 17,4 C 15,6 C 12,2 C 85 % 1017,0 hPa 0,0 l/m 0 min 0 min 0 W/m 3,2 km/h (1 Bft) 97,83 %
22.05.2023 23:46 17,4 C 15,6 C 12,2 C 85 % 1017,0 hPa 0,0 l/m 0 min 0 min 0 W/m 3,2 km/h (1 Bft) 100,00 %
22.05.2023 23:48 17,3 C 15,6 C 12,2 C 85 % 1017,0 hPa 0,0 l/m 0 min 0 min 0 W/m 3,2 km/h (1 Bft) 97,87 %
22.05.2023 23:50 17,3 C 15,6 C 12,2 C 86 % 1017,1 hPa 0,0 l/m 0 min 0 min 0 W/m 6,4 km/h (2 Bft) 97,87 %
22.05.2023 23:52 17,2 C 15,6 C 12,2 C 86 % 1017,1 hPa 0,0 l/m 0 min 0 min 0 W/m 6,4 km/h (2 Bft) 100,00 %
22.05.2023 23:54 17,1 C 15,6 C 12,2 C 86 % 1017,1 hPa 0,0 l/m 0 min 0 min 0 W/m 9,7 km/h (2 Bft) 97,87 %
22.05.2023 23:56 17,1 C 15,6 C 12,2 C 85 % 1017,1 hPa 0,0 l/m 0 min 0 min 0 W/m 6,4 km/h (2 Bft) 97,87 %
22.05.2023 23:58 17,0 C 15,6 C 12,2 C 85 % 1017,1 hPa 0,0 l/m 0 min 0 min 0 W/m 9,7 km/h (2 Bft) 97,87 %
_ Min-Zeit 06:20 04:50 04:56 15:34 05:00 - - - - 00:32 01:36
Minimum _ 15,9 C 15,0 C 11,7 C 71 % 1013,6 hPa - - - - 0,0 km/h (0 Bft) 89,36 %
_ Max-Zeit 15:56 14:44 13:40 07:04 23:50 00:00 18:12 00:00 13:08 19:08 00:08
Maximum _ 25,1 C 29,4 C 23,9 C 97 % 1017,1 hPa 0,0 l/m 4 min 0 min 932 W/m 38,6 km/h
N-NW (5 Bft)
100,00 %
Durchschnitt _ 19,4 C 19,6 C 15,3 C 86 % 1014,7 hPa #0,0 l/m #6:26 h #0 min. 325 W/m 7,7 km/h (2 Bft) 97,37 %
© 2023 W. Hausmann